<?xml version="1.0" encoding="UTF-8" standalone="no" ?>
<gpx xmlns="http://www.topografix.com/GPX/1/1" xmlns:xsi="http://www.w3.org/2001/XMLSchema-instance" xsi:schemaLocation="http://www.topografix.com/GPX/1/1 http://www.topografix.com/GPX/1/1/gpx.xsd" version="1.1" creator="VisuGPX - https://www.visugpx.com">
  <metadata>
    <name>Le chasseron</name>
    <desc><![CDATA[Le chasseron depuis les Rasses]]></desc>
  </metadata>
  <trk>
    <name><![CDATA[2020-12-29 13:16:39]]></name>
    <trkseg>
      <trkpt lat="46.82994" lon="6.54115">
        <ele>1186.4</ele>
        <time>2020-12-29T08:08:42Z</time>
      </trkpt>
      <trkpt lat="46.82993" lon="6.54118">
        <ele>1192.17</ele>
        <time>2020-12-29T08:09:25Z</time>
      </trkpt>
      <trkpt lat="46.82994" lon="6.54122">
        <ele>1191.69</ele>
        <time>2020-12-29T08:09:48Z</time>
      </trkpt>
      <trkpt lat="46.82998" lon="6.54129">
        <ele>1191.69</ele>
        <time>2020-12-29T08:09:54Z</time>
      </trkpt>
      <trkpt lat="46.83011" lon="6.54152">
        <ele>1192.65</ele>
        <time>2020-12-29T08:10:11Z</time>
      </trkpt>
      <trkpt lat="46.83027" lon="6.54178">
        <ele>1193.13</ele>
        <time>2020-12-29T08:10:29Z</time>
      </trkpt>
      <trkpt lat="46.83044" lon="6.54207">
        <ele>1193.61</ele>
        <time>2020-12-29T08:10:49Z</time>
      </trkpt>
      <trkpt lat="46.83059" lon="6.54238">
        <ele>1194.09</ele>
        <time>2020-12-29T08:11:09Z</time>
      </trkpt>
      <trkpt lat="46.83069" lon="6.54251">
        <ele>1195.06</ele>
        <time>2020-12-29T08:11:27Z</time>
      </trkpt>
      <trkpt lat="46.83071" lon="6.54252">
        <ele>1194.58</ele>
        <time>2020-12-29T08:11:52Z</time>
      </trkpt>
      <trkpt lat="46.83069" lon="6.54251">
        <ele>1194.58</ele>
        <time>2020-12-29T08:12:17Z</time>
      </trkpt>
      <trkpt lat="46.83069" lon="6.54253">
        <ele>1196.02</ele>
        <time>2020-12-29T08:12:42Z</time>
      </trkpt>
      <trkpt lat="46.83077" lon="6.54247">
        <ele>1196.98</ele>
        <time>2020-12-29T08:13:01Z</time>
      </trkpt>
      <trkpt lat="46.83082" lon="6.54231">
        <ele>1196.98</ele>
        <time>2020-12-29T08:13:17Z</time>
      </trkpt>
      <trkpt lat="46.83089" lon="6.54219">
        <ele>1198.9</ele>
        <time>2020-12-29T08:13:33Z</time>
      </trkpt>
      <trkpt lat="46.83097" lon="6.54205">
        <ele>1200.82</ele>
        <time>2020-12-29T08:13:49Z</time>
      </trkpt>
      <trkpt lat="46.83108" lon="6.54208">
        <ele>1201.79</ele>
        <time>2020-12-29T08:14:02Z</time>
      </trkpt>
      <trkpt lat="46.83112" lon="6.5421">
        <ele>1201.79</ele>
        <time>2020-12-29T08:14:06Z</time>
      </trkpt>
      <trkpt lat="46.83118" lon="6.54208">
        <ele>1203.23</ele>
        <time>2020-12-29T08:14:13Z</time>
      </trkpt>
      <trkpt lat="46.8313" lon="6.54201">
        <ele>1203.71</ele>
        <time>2020-12-29T08:14:28Z</time>
      </trkpt>
      <trkpt lat="46.83137" lon="6.54194">
        <ele>1204.67</ele>
        <time>2020-12-29T08:14:42Z</time>
      </trkpt>
      <trkpt lat="46.83145" lon="6.54187">
        <ele>1205.63</ele>
        <time>2020-12-29T08:14:55Z</time>
      </trkpt>
      <trkpt lat="46.83155" lon="6.54179">
        <ele>1208.03</ele>
        <time>2020-12-29T08:15:11Z</time>
      </trkpt>
      <trkpt lat="46.83166" lon="6.54175">
        <ele>1210.44</ele>
        <time>2020-12-29T08:15:27Z</time>
      </trkpt>
      <trkpt lat="46.83174" lon="6.54174">
        <ele>1212.36</ele>
        <time>2020-12-29T08:15:43Z</time>
      </trkpt>
      <trkpt lat="46.83183" lon="6.54176">
        <ele>1215.24</ele>
        <time>2020-12-29T08:15:59Z</time>
      </trkpt>
      <trkpt lat="46.83192" lon="6.54179">
        <ele>1217.17</ele>
        <time>2020-12-29T08:16:14Z</time>
      </trkpt>
      <trkpt lat="46.832" lon="6.54179">
        <ele>1219.57</ele>
        <time>2020-12-29T08:16:29Z</time>
      </trkpt>
      <trkpt lat="46.83209" lon="6.54183">
        <ele>1221.97</ele>
        <time>2020-12-29T08:16:43Z</time>
      </trkpt>
      <trkpt lat="46.83216" lon="6.54188">
        <ele>1224.86</ele>
        <time>2020-12-29T08:16:56Z</time>
      </trkpt>
      <trkpt lat="46.83225" lon="6.54192">
        <ele>1228.7</ele>
        <time>2020-12-29T08:17:17Z</time>
      </trkpt>
      <trkpt lat="46.83239" lon="6.54198">
        <ele>1229.66</ele>
        <time>2020-12-29T08:17:31Z</time>
      </trkpt>
      <trkpt lat="46.83242" lon="6.54199">
        <ele>1230.14</ele>
        <time>2020-12-29T08:17:34Z</time>
      </trkpt>
      <trkpt lat="46.83257" lon="6.54209">
        <ele>1231.11</ele>
        <time>2020-12-29T08:17:50Z</time>
      </trkpt>
      <trkpt lat="46.83271" lon="6.54217">
        <ele>1231.59</ele>
        <time>2020-12-29T08:18:07Z</time>
      </trkpt>
      <trkpt lat="46.83287" lon="6.54226">
        <ele>1233.03</ele>
        <time>2020-12-29T08:18:23Z</time>
      </trkpt>
      <trkpt lat="46.83292" lon="6.54231">
        <ele>1233.03</ele>
        <time>2020-12-29T08:18:29Z</time>
      </trkpt>
      <trkpt lat="46.83302" lon="6.54242">
        <ele>1232.55</ele>
        <time>2020-12-29T08:18:43Z</time>
      </trkpt>
      <trkpt lat="46.83307" lon="6.54247">
        <ele>1232.55</ele>
        <time>2020-12-29T08:18:50Z</time>
      </trkpt>
      <trkpt lat="46.83315" lon="6.5426">
        <ele>1232.55</ele>
        <time>2020-12-29T08:19:03Z</time>
      </trkpt>
      <trkpt lat="46.83323" lon="6.54276">
        <ele>1233.99</ele>
        <time>2020-12-29T08:19:16Z</time>
      </trkpt>
      <trkpt lat="46.83324" lon="6.54279">
        <ele>1233.99</ele>
        <time>2020-12-29T08:19:19Z</time>
      </trkpt>
      <trkpt lat="46.83337" lon="6.54296">
        <ele>1233.51</ele>
        <time>2020-12-29T08:19:36Z</time>
      </trkpt>
      <trkpt lat="46.8334" lon="6.543">
        <ele>1233.51</ele>
        <time>2020-12-29T08:19:41Z</time>
      </trkpt>
      <trkpt lat="46.83346" lon="6.54307">
        <ele>1237.83</ele>
        <time>2020-12-29T08:19:49Z</time>
      </trkpt>
      <trkpt lat="46.83358" lon="6.54315">
        <ele>1241.68</ele>
        <time>2020-12-29T08:20:03Z</time>
      </trkpt>
      <trkpt lat="46.83364" lon="6.54324">
        <ele>1244.08</ele>
        <time>2020-12-29T08:20:18Z</time>
      </trkpt>
      <trkpt lat="46.83374" lon="6.54336">
        <ele>1246.49</ele>
        <time>2020-12-29T08:20:35Z</time>
      </trkpt>
      <trkpt lat="46.83383" lon="6.54331">
        <ele>1248.89</ele>
        <time>2020-12-29T08:20:49Z</time>
      </trkpt>
      <trkpt lat="46.83388" lon="6.54313">
        <ele>1249.37</ele>
        <time>2020-12-29T08:21:06Z</time>
      </trkpt>
      <trkpt lat="46.83386" lon="6.54297">
        <ele>1248.89</ele>
        <time>2020-12-29T08:21:21Z</time>
      </trkpt>
      <trkpt lat="46.83382" lon="6.54278">
        <ele>1250.33</ele>
        <time>2020-12-29T08:21:36Z</time>
      </trkpt>
      <trkpt lat="46.83379" lon="6.54264">
        <ele>1250.81</ele>
        <time>2020-12-29T08:21:50Z</time>
      </trkpt>
      <trkpt lat="46.83379" lon="6.54246">
        <ele>1248.41</ele>
        <time>2020-12-29T08:22:08Z</time>
      </trkpt>
      <trkpt lat="46.8338" lon="6.54231">
        <ele>1247.93</ele>
        <time>2020-12-29T08:22:23Z</time>
      </trkpt>
      <trkpt lat="46.83393" lon="6.54232">
        <ele>1250.33</ele>
        <time>2020-12-29T08:22:41Z</time>
      </trkpt>
      <trkpt lat="46.834" lon="6.5424">
        <ele>1255.62</ele>
        <time>2020-12-29T08:22:56Z</time>
      </trkpt>
      <trkpt lat="46.83409" lon="6.54245">
        <ele>1258.02</ele>
        <time>2020-12-29T08:23:12Z</time>
      </trkpt>
      <trkpt lat="46.83414" lon="6.54245">
        <ele>1259.46</ele>
        <time>2020-12-29T08:23:26Z</time>
      </trkpt>
      <trkpt lat="46.83411" lon="6.54232">
        <ele>1258.02</ele>
        <time>2020-12-29T08:23:39Z</time>
      </trkpt>
      <trkpt lat="46.83408" lon="6.54218">
        <ele>1257.06</ele>
        <time>2020-12-29T08:23:50Z</time>
      </trkpt>
      <trkpt lat="46.83404" lon="6.54199">
        <ele>1258.5</ele>
        <time>2020-12-29T08:24:05Z</time>
      </trkpt>
      <trkpt lat="46.83403" lon="6.54188">
        <ele>1260.43</ele>
        <time>2020-12-29T08:24:22Z</time>
      </trkpt>
      <trkpt lat="46.83402" lon="6.54187">
        <ele>1260.91</ele>
        <time>2020-12-29T08:24:36Z</time>
      </trkpt>
      <trkpt lat="46.83403" lon="6.54186">
        <ele>1260.43</ele>
        <time>2020-12-29T08:24:55Z</time>
      </trkpt>
      <trkpt lat="46.83401" lon="6.54187">
        <ele>1261.87</ele>
        <time>2020-12-29T08:25:17Z</time>
      </trkpt>
      <trkpt lat="46.834" lon="6.54182">
        <ele>1264.75</ele>
        <time>2020-12-29T08:25:35Z</time>
      </trkpt>
      <trkpt lat="46.834" lon="6.5418">
        <ele>1265.23</ele>
        <time>2020-12-29T08:25:38Z</time>
      </trkpt>
      <trkpt lat="46.834" lon="6.54167">
        <ele>1265.23</ele>
        <time>2020-12-29T08:25:51Z</time>
      </trkpt>
      <trkpt lat="46.834" lon="6.54155">
        <ele>1267.16</ele>
        <time>2020-12-29T08:26:02Z</time>
      </trkpt>
      <trkpt lat="46.83404" lon="6.54149">
        <ele>1268.6</ele>
        <time>2020-12-29T08:26:15Z</time>
      </trkpt>
      <trkpt lat="46.83411" lon="6.54137">
        <ele>1273.4</ele>
        <time>2020-12-29T08:26:30Z</time>
      </trkpt>
      <trkpt lat="46.83413" lon="6.54131">
        <ele>1274.85</ele>
        <time>2020-12-29T08:26:43Z</time>
      </trkpt>
      <trkpt lat="46.83417" lon="6.54124">
        <ele>1275.81</ele>
        <time>2020-12-29T08:26:59Z</time>
      </trkpt>
      <trkpt lat="46.83417" lon="6.54113">
        <ele>1276.29</ele>
        <time>2020-12-29T08:27:14Z</time>
      </trkpt>
      <trkpt lat="46.83417" lon="6.54097">
        <ele>1276.77</ele>
        <time>2020-12-29T08:27:30Z</time>
      </trkpt>
      <trkpt lat="46.83421" lon="6.54085">
        <ele>1274.85</ele>
        <time>2020-12-29T08:27:46Z</time>
      </trkpt>
      <trkpt lat="46.83421" lon="6.54068">
        <ele>1271</ele>
        <time>2020-12-29T08:28:06Z</time>
      </trkpt>
      <trkpt lat="46.83413" lon="6.54046">
        <ele>1269.08</ele>
        <time>2020-12-29T08:28:23Z</time>
      </trkpt>
      <trkpt lat="46.8341" lon="6.54029">
        <ele>1270.04</ele>
        <time>2020-12-29T08:28:39Z</time>
      </trkpt>
      <trkpt lat="46.83405" lon="6.54009">
        <ele>1271.96</ele>
        <time>2020-12-29T08:28:56Z</time>
      </trkpt>
      <trkpt lat="46.83401" lon="6.53986">
        <ele>1272.92</ele>
        <time>2020-12-29T08:29:14Z</time>
      </trkpt>
      <trkpt lat="46.83394" lon="6.53966">
        <ele>1271.96</ele>
        <time>2020-12-29T08:29:33Z</time>
      </trkpt>
      <trkpt lat="46.83392" lon="6.5396">
        <ele>1271.96</ele>
        <time>2020-12-29T08:29:38Z</time>
      </trkpt>
      <trkpt lat="46.83382" lon="6.53943">
        <ele>1277.25</ele>
        <time>2020-12-29T08:29:55Z</time>
      </trkpt>
      <trkpt lat="46.8337" lon="6.53921">
        <ele>1278.69</ele>
        <time>2020-12-29T08:30:13Z</time>
      </trkpt>
      <trkpt lat="46.83361" lon="6.53908">
        <ele>1279.17</ele>
        <time>2020-12-29T08:30:29Z</time>
      </trkpt>
      <trkpt lat="46.83351" lon="6.53891">
        <ele>1277.73</ele>
        <time>2020-12-29T08:30:48Z</time>
      </trkpt>
      <trkpt lat="46.83335" lon="6.53862">
        <ele>1274.36</ele>
        <time>2020-12-29T08:31:07Z</time>
      </trkpt>
      <trkpt lat="46.83319" lon="6.53832">
        <ele>1278.69</ele>
        <time>2020-12-29T08:31:23Z</time>
      </trkpt>
      <trkpt lat="46.83306" lon="6.53816">
        <ele>1275.81</ele>
        <time>2020-12-29T08:31:40Z</time>
      </trkpt>
      <trkpt lat="46.83294" lon="6.53793">
        <ele>1271.96</ele>
        <time>2020-12-29T08:31:58Z</time>
      </trkpt>
      <trkpt lat="46.83281" lon="6.53779">
        <ele>1274.36</ele>
        <time>2020-12-29T08:32:12Z</time>
      </trkpt>
      <trkpt lat="46.83271" lon="6.53766">
        <ele>1274.85</ele>
        <time>2020-12-29T08:32:29Z</time>
      </trkpt>
      <trkpt lat="46.83265" lon="6.53744">
        <ele>1275.33</ele>
        <time>2020-12-29T08:32:44Z</time>
      </trkpt>
      <trkpt lat="46.83266" lon="6.53718">
        <ele>1276.77</ele>
        <time>2020-12-29T08:33:02Z</time>
      </trkpt>
      <trkpt lat="46.83272" lon="6.53696">
        <ele>1282.06</ele>
        <time>2020-12-29T08:33:19Z</time>
      </trkpt>
      <trkpt lat="46.8328" lon="6.53679">
        <ele>1279.17</ele>
        <time>2020-12-29T08:33:38Z</time>
      </trkpt>
      <trkpt lat="46.83274" lon="6.53645">
        <ele>1282.54</ele>
        <time>2020-12-29T08:34:00Z</time>
      </trkpt>
      <trkpt lat="46.83268" lon="6.53627">
        <ele>1282.54</ele>
        <time>2020-12-29T08:34:15Z</time>
      </trkpt>
      <trkpt lat="46.8326" lon="6.53601">
        <ele>1288.78</ele>
        <time>2020-12-29T08:34:34Z</time>
      </trkpt>
      <trkpt lat="46.83258" lon="6.53596">
        <ele>1293.11</ele>
        <time>2020-12-29T08:34:40Z</time>
      </trkpt>
      <trkpt lat="46.83248" lon="6.53581">
        <ele>1295.03</ele>
        <time>2020-12-29T08:34:59Z</time>
      </trkpt>
      <trkpt lat="46.83237" lon="6.53566">
        <ele>1295.03</ele>
        <time>2020-12-29T08:35:16Z</time>
      </trkpt>
      <trkpt lat="46.83226" lon="6.53547">
        <ele>1293.59</ele>
        <time>2020-12-29T08:35:32Z</time>
      </trkpt>
      <trkpt lat="46.83223" lon="6.53523">
        <ele>1289.27</ele>
        <time>2020-12-29T08:35:54Z</time>
      </trkpt>
      <trkpt lat="46.83218" lon="6.53493">
        <ele>1288.3</ele>
        <time>2020-12-29T08:36:18Z</time>
      </trkpt>
      <trkpt lat="46.83213" lon="6.53469">
        <ele>1288.78</ele>
        <time>2020-12-29T08:36:38Z</time>
      </trkpt>
      <trkpt lat="46.83212" lon="6.53442">
        <ele>1300.32</ele>
        <time>2020-12-29T08:37:00Z</time>
      </trkpt>
      <trkpt lat="46.83212" lon="6.53428">
        <ele>1299.84</ele>
        <time>2020-12-29T08:37:23Z</time>
      </trkpt>
      <trkpt lat="46.83213" lon="6.53405">
        <ele>1295.51</ele>
        <time>2020-12-29T08:37:46Z</time>
      </trkpt>
      <trkpt lat="46.83208" lon="6.53372">
        <ele>1295.03</ele>
        <time>2020-12-29T08:38:09Z</time>
      </trkpt>
      <trkpt lat="46.83207" lon="6.53347">
        <ele>1288.3</ele>
        <time>2020-12-29T08:38:33Z</time>
      </trkpt>
      <trkpt lat="46.83211" lon="6.53312">
        <ele>1287.82</ele>
        <time>2020-12-29T08:38:51Z</time>
      </trkpt>
      <trkpt lat="46.8321" lon="6.53283">
        <ele>1288.78</ele>
        <time>2020-12-29T08:39:11Z</time>
      </trkpt>
      <trkpt lat="46.83215" lon="6.5326">
        <ele>1289.27</ele>
        <time>2020-12-29T08:39:30Z</time>
      </trkpt>
      <trkpt lat="46.83218" lon="6.53244">
        <ele>1289.75</ele>
        <time>2020-12-29T08:39:50Z</time>
      </trkpt>
      <trkpt lat="46.83225" lon="6.5323">
        <ele>1286.38</ele>
        <time>2020-12-29T08:40:09Z</time>
      </trkpt>
      <trkpt lat="46.83236" lon="6.53209">
        <ele>1288.3</ele>
        <time>2020-12-29T08:40:29Z</time>
      </trkpt>
      <trkpt lat="46.83244" lon="6.53195">
        <ele>1285.42</ele>
        <time>2020-12-29T08:40:49Z</time>
      </trkpt>
      <trkpt lat="46.83249" lon="6.53179">
        <ele>1283.02</ele>
        <time>2020-12-29T08:41:08Z</time>
      </trkpt>
      <trkpt lat="46.83253" lon="6.53163">
        <ele>1284.94</ele>
        <time>2020-12-29T08:41:24Z</time>
      </trkpt>
      <trkpt lat="46.83253" lon="6.53132">
        <ele>1298.4</ele>
        <time>2020-12-29T08:41:43Z</time>
      </trkpt>
      <trkpt lat="46.83256" lon="6.5311">
        <ele>1301.76</ele>
        <time>2020-12-29T08:42:03Z</time>
      </trkpt>
      <trkpt lat="46.83259" lon="6.53094">
        <ele>1301.76</ele>
        <time>2020-12-29T08:42:20Z</time>
      </trkpt>
      <trkpt lat="46.83261" lon="6.53069">
        <ele>1303.69</ele>
        <time>2020-12-29T08:42:39Z</time>
      </trkpt>
      <trkpt lat="46.8326" lon="6.53045">
        <ele>1308.49</ele>
        <time>2020-12-29T08:42:59Z</time>
      </trkpt>
      <trkpt lat="46.83261" lon="6.53029">
        <ele>1315.22</ele>
        <time>2020-12-29T08:43:12Z</time>
      </trkpt>
      <trkpt lat="46.83262" lon="6.53005">
        <ele>1318.59</ele>
        <time>2020-12-29T08:43:33Z</time>
      </trkpt>
      <trkpt lat="46.83267" lon="6.52991">
        <ele>1320.03</ele>
        <time>2020-12-29T08:43:48Z</time>
      </trkpt>
      <trkpt lat="46.83275" lon="6.52975">
        <ele>1324.35</ele>
        <time>2020-12-29T08:44:06Z</time>
      </trkpt>
      <trkpt lat="46.83282" lon="6.52958">
        <ele>1327.24</ele>
        <time>2020-12-29T08:44:29Z</time>
      </trkpt>
      <trkpt lat="46.83289" lon="6.52948">
        <ele>1327.24</ele>
        <time>2020-12-29T08:44:46Z</time>
      </trkpt>
      <trkpt lat="46.83292" lon="6.5293">
        <ele>1326.76</ele>
        <time>2020-12-29T08:45:05Z</time>
      </trkpt>
      <trkpt lat="46.83299" lon="6.52914">
        <ele>1325.8</ele>
        <time>2020-12-29T08:45:24Z</time>
      </trkpt>
      <trkpt lat="46.83305" lon="6.52897">
        <ele>1327.24</ele>
        <time>2020-12-29T08:45:44Z</time>
      </trkpt>
      <trkpt lat="46.83314" lon="6.52881">
        <ele>1328.2</ele>
        <time>2020-12-29T08:46:05Z</time>
      </trkpt>
      <trkpt lat="46.83322" lon="6.52872">
        <ele>1326.76</ele>
        <time>2020-12-29T08:46:23Z</time>
      </trkpt>
      <trkpt lat="46.83331" lon="6.52856">
        <ele>1325.8</ele>
        <time>2020-12-29T08:46:42Z</time>
      </trkpt>
      <trkpt lat="46.83337" lon="6.52841">
        <ele>1329.16</ele>
        <time>2020-12-29T08:47:01Z</time>
      </trkpt>
      <trkpt lat="46.83345" lon="6.52827">
        <ele>1331.56</ele>
        <time>2020-12-29T08:47:19Z</time>
      </trkpt>
      <trkpt lat="46.83355" lon="6.52815">
        <ele>1333.97</ele>
        <time>2020-12-29T08:47:39Z</time>
      </trkpt>
      <trkpt lat="46.83361" lon="6.52803">
        <ele>1337.81</ele>
        <time>2020-12-29T08:47:58Z</time>
      </trkpt>
      <trkpt lat="46.83368" lon="6.52791">
        <ele>1342.62</ele>
        <time>2020-12-29T08:48:19Z</time>
      </trkpt>
      <trkpt lat="46.83373" lon="6.52778">
        <ele>1348.87</ele>
        <time>2020-12-29T08:48:38Z</time>
      </trkpt>
      <trkpt lat="46.83377" lon="6.52762">
        <ele>1358.48</ele>
        <time>2020-12-29T08:48:56Z</time>
      </trkpt>
      <trkpt lat="46.83378" lon="6.5275">
        <ele>1368.09</ele>
        <time>2020-12-29T08:49:15Z</time>
      </trkpt>
      <trkpt lat="46.8338" lon="6.52745">
        <ele>1366.65</ele>
        <time>2020-12-29T08:49:39Z</time>
      </trkpt>
      <trkpt lat="46.83382" lon="6.52732">
        <ele>1369.54</ele>
        <time>2020-12-29T08:49:54Z</time>
      </trkpt>
      <trkpt lat="46.83384" lon="6.52713">
        <ele>1371.46</ele>
        <time>2020-12-29T08:50:12Z</time>
      </trkpt>
      <trkpt lat="46.83384" lon="6.52701">
        <ele>1372.9</ele>
        <time>2020-12-29T08:50:30Z</time>
      </trkpt>
      <trkpt lat="46.83387" lon="6.527">
        <ele>1373.86</ele>
        <time>2020-12-29T08:50:56Z</time>
      </trkpt>
      <trkpt lat="46.83385" lon="6.52689">
        <ele>1374.34</ele>
        <time>2020-12-29T08:51:18Z</time>
      </trkpt>
      <trkpt lat="46.83385" lon="6.52663">
        <ele>1376.75</ele>
        <time>2020-12-29T08:51:38Z</time>
      </trkpt>
      <trkpt lat="46.83386" lon="6.52639">
        <ele>1378.67</ele>
        <time>2020-12-29T08:51:58Z</time>
      </trkpt>
      <trkpt lat="46.83384" lon="6.52617">
        <ele>1383.47</ele>
        <time>2020-12-29T08:52:19Z</time>
      </trkpt>
      <trkpt lat="46.83386" lon="6.52597">
        <ele>1390.2</ele>
        <time>2020-12-29T08:52:41Z</time>
      </trkpt>
      <trkpt lat="46.8339" lon="6.5258">
        <ele>1387.32</ele>
        <time>2020-12-29T08:53:00Z</time>
      </trkpt>
      <trkpt lat="46.83391" lon="6.52558">
        <ele>1384.92</ele>
        <time>2020-12-29T08:53:19Z</time>
      </trkpt>
      <trkpt lat="46.83393" lon="6.52538">
        <ele>1390.2</ele>
        <time>2020-12-29T08:53:37Z</time>
      </trkpt>
      <trkpt lat="46.83399" lon="6.52517">
        <ele>1394.05</ele>
        <time>2020-12-29T08:53:58Z</time>
      </trkpt>
      <trkpt lat="46.83406" lon="6.52499">
        <ele>1393.09</ele>
        <time>2020-12-29T08:54:22Z</time>
      </trkpt>
      <trkpt lat="46.8341" lon="6.52484">
        <ele>1393.09</ele>
        <time>2020-12-29T08:54:43Z</time>
      </trkpt>
      <trkpt lat="46.83413" lon="6.52466">
        <ele>1394.05</ele>
        <time>2020-12-29T08:55:03Z</time>
      </trkpt>
      <trkpt lat="46.83418" lon="6.5245">
        <ele>1396.45</ele>
        <time>2020-12-29T08:55:24Z</time>
      </trkpt>
      <trkpt lat="46.83423" lon="6.52431">
        <ele>1397.41</ele>
        <time>2020-12-29T08:55:43Z</time>
      </trkpt>
      <trkpt lat="46.83428" lon="6.52419">
        <ele>1397.89</ele>
        <time>2020-12-29T08:55:58Z</time>
      </trkpt>
      <trkpt lat="46.83434" lon="6.52409">
        <ele>1397.89</ele>
        <time>2020-12-29T08:56:16Z</time>
      </trkpt>
      <trkpt lat="46.83445" lon="6.52413">
        <ele>1400.3</ele>
        <time>2020-12-29T08:56:34Z</time>
      </trkpt>
      <trkpt lat="46.83458" lon="6.52414">
        <ele>1407.51</ele>
        <time>2020-12-29T08:56:58Z</time>
      </trkpt>
      <trkpt lat="46.83471" lon="6.52424">
        <ele>1416.16</ele>
        <time>2020-12-29T08:57:22Z</time>
      </trkpt>
      <trkpt lat="46.83476" lon="6.52436">
        <ele>1419.04</ele>
        <time>2020-12-29T08:57:40Z</time>
      </trkpt>
      <trkpt lat="46.83485" lon="6.52442">
        <ele>1424.33</ele>
        <time>2020-12-29T08:58:01Z</time>
      </trkpt>
      <trkpt lat="46.83491" lon="6.52452">
        <ele>1427.21</ele>
        <time>2020-12-29T08:58:23Z</time>
      </trkpt>
      <trkpt lat="46.835" lon="6.52467">
        <ele>1427.21</ele>
        <time>2020-12-29T08:58:44Z</time>
      </trkpt>
      <trkpt lat="46.8351" lon="6.52458">
        <ele>1428.66</ele>
        <time>2020-12-29T08:59:07Z</time>
      </trkpt>
      <trkpt lat="46.83521" lon="6.52459">
        <ele>1427.21</ele>
        <time>2020-12-29T08:59:31Z</time>
      </trkpt>
      <trkpt lat="46.83535" lon="6.52471">
        <ele>1428.18</ele>
        <time>2020-12-29T08:59:52Z</time>
      </trkpt>
      <trkpt lat="46.83544" lon="6.52476">
        <ele>1430.58</ele>
        <time>2020-12-29T09:00:17Z</time>
      </trkpt>
      <trkpt lat="46.83556" lon="6.52474">
        <ele>1431.54</ele>
        <time>2020-12-29T09:00:42Z</time>
      </trkpt>
      <trkpt lat="46.83568" lon="6.52475">
        <ele>1432.98</ele>
        <time>2020-12-29T09:01:03Z</time>
      </trkpt>
      <trkpt lat="46.83575" lon="6.52474">
        <ele>1438.27</ele>
        <time>2020-12-29T09:01:22Z</time>
      </trkpt>
      <trkpt lat="46.83587" lon="6.52477">
        <ele>1441.63</ele>
        <time>2020-12-29T09:01:44Z</time>
      </trkpt>
      <trkpt lat="46.83601" lon="6.52478">
        <ele>1443.08</ele>
        <time>2020-12-29T09:02:02Z</time>
      </trkpt>
      <trkpt lat="46.83615" lon="6.52486">
        <ele>1440.19</ele>
        <time>2020-12-29T09:02:24Z</time>
      </trkpt>
      <trkpt lat="46.83627" lon="6.52484">
        <ele>1442.6</ele>
        <time>2020-12-29T09:02:41Z</time>
      </trkpt>
      <trkpt lat="46.83638" lon="6.52485">
        <ele>1443.56</ele>
        <time>2020-12-29T09:02:59Z</time>
      </trkpt>
      <trkpt lat="46.83651" lon="6.5249">
        <ele>1444.52</ele>
        <time>2020-12-29T09:03:16Z</time>
      </trkpt>
      <trkpt lat="46.83651" lon="6.5249">
        <ele>1444.52</ele>
        <time>2020-12-29T09:03:17Z</time>
      </trkpt>
      <trkpt lat="46.83655" lon="6.52488">
        <ele>1445.96</ele>
        <time>2020-12-29T09:03:23Z</time>
      </trkpt>
      <trkpt lat="46.83661" lon="6.52487">
        <ele>1446.44</ele>
        <time>2020-12-29T09:03:36Z</time>
      </trkpt>
      <trkpt lat="46.83666" lon="6.5247">
        <ele>1447.4</ele>
        <time>2020-12-29T09:03:53Z</time>
      </trkpt>
      <trkpt lat="46.83675" lon="6.52467">
        <ele>1448.84</ele>
        <time>2020-12-29T09:04:10Z</time>
      </trkpt>
      <trkpt lat="46.83691" lon="6.52461">
        <ele>1449.81</ele>
        <time>2020-12-29T09:04:31Z</time>
      </trkpt>
      <trkpt lat="46.83705" lon="6.52456">
        <ele>1452.21</ele>
        <time>2020-12-29T09:04:51Z</time>
      </trkpt>
      <trkpt lat="46.83721" lon="6.5245">
        <ele>1453.65</ele>
        <time>2020-12-29T09:05:09Z</time>
      </trkpt>
      <trkpt lat="46.83732" lon="6.52439">
        <ele>1455.09</ele>
        <time>2020-12-29T09:05:27Z</time>
      </trkpt>
      <trkpt lat="46.83741" lon="6.52427">
        <ele>1455.57</ele>
        <time>2020-12-29T09:05:45Z</time>
      </trkpt>
      <trkpt lat="46.83756" lon="6.52427">
        <ele>1456.05</ele>
        <time>2020-12-29T09:06:03Z</time>
      </trkpt>
      <trkpt lat="46.83767" lon="6.5243">
        <ele>1457.98</ele>
        <time>2020-12-29T09:06:22Z</time>
      </trkpt>
      <trkpt lat="46.83776" lon="6.52432">
        <ele>1462.3</ele>
        <time>2020-12-29T09:06:40Z</time>
      </trkpt>
      <trkpt lat="46.83785" lon="6.52436">
        <ele>1465.67</ele>
        <time>2020-12-29T09:07:01Z</time>
      </trkpt>
      <trkpt lat="46.83792" lon="6.52436">
        <ele>1467.59</ele>
        <time>2020-12-29T09:07:18Z</time>
      </trkpt>
      <trkpt lat="46.83799" lon="6.52443">
        <ele>1471.44</ele>
        <time>2020-12-29T09:07:35Z</time>
      </trkpt>
      <trkpt lat="46.83804" lon="6.52449">
        <ele>1472.88</ele>
        <time>2020-12-29T09:07:51Z</time>
      </trkpt>
      <trkpt lat="46.83815" lon="6.52455">
        <ele>1472.4</ele>
        <time>2020-12-29T09:08:11Z</time>
      </trkpt>
      <trkpt lat="46.83827" lon="6.52459">
        <ele>1474.32</ele>
        <time>2020-12-29T09:08:33Z</time>
      </trkpt>
      <trkpt lat="46.83839" lon="6.52468">
        <ele>1475.28</ele>
        <time>2020-12-29T09:08:54Z</time>
      </trkpt>
      <trkpt lat="46.83846" lon="6.52465">
        <ele>1475.76</ele>
        <time>2020-12-29T09:09:11Z</time>
      </trkpt>
      <trkpt lat="46.83852" lon="6.52461">
        <ele>1477.68</ele>
        <time>2020-12-29T09:09:27Z</time>
      </trkpt>
      <trkpt lat="46.83858" lon="6.52458">
        <ele>1480.09</ele>
        <time>2020-12-29T09:09:43Z</time>
      </trkpt>
      <trkpt lat="46.83864" lon="6.52453">
        <ele>1484.41</ele>
        <time>2020-12-29T09:10:01Z</time>
      </trkpt>
      <trkpt lat="46.8387" lon="6.52453">
        <ele>1486.82</ele>
        <time>2020-12-29T09:10:20Z</time>
      </trkpt>
      <trkpt lat="46.83876" lon="6.52452">
        <ele>1488.74</ele>
        <time>2020-12-29T09:10:39Z</time>
      </trkpt>
      <trkpt lat="46.8388" lon="6.52451">
        <ele>1489.22</ele>
        <time>2020-12-29T09:10:58Z</time>
      </trkpt>
      <trkpt lat="46.83886" lon="6.52452">
        <ele>1489.7</ele>
        <time>2020-12-29T09:11:18Z</time>
      </trkpt>
      <trkpt lat="46.83892" lon="6.52455">
        <ele>1489.7</ele>
        <time>2020-12-29T09:11:38Z</time>
      </trkpt>
      <trkpt lat="46.83898" lon="6.52465">
        <ele>1492.58</ele>
        <time>2020-12-29T09:11:58Z</time>
      </trkpt>
      <trkpt lat="46.83905" lon="6.52476">
        <ele>1495.95</ele>
        <time>2020-12-29T09:12:17Z</time>
      </trkpt>
      <trkpt lat="46.83912" lon="6.52483">
        <ele>1499.31</ele>
        <time>2020-12-29T09:12:38Z</time>
      </trkpt>
      <trkpt lat="46.83919" lon="6.52481">
        <ele>1501.72</ele>
        <time>2020-12-29T09:12:54Z</time>
      </trkpt>
      <trkpt lat="46.83922" lon="6.52483">
        <ele>1503.64</ele>
        <time>2020-12-29T09:13:14Z</time>
      </trkpt>
      <trkpt lat="46.83933" lon="6.5249">
        <ele>1505.56</ele>
        <time>2020-12-29T09:13:35Z</time>
      </trkpt>
      <trkpt lat="46.83942" lon="6.52496">
        <ele>1507.97</ele>
        <time>2020-12-29T09:13:54Z</time>
      </trkpt>
      <trkpt lat="46.83952" lon="6.52499">
        <ele>1511.81</ele>
        <time>2020-12-29T09:14:12Z</time>
      </trkpt>
      <trkpt lat="46.83964" lon="6.52507">
        <ele>1514.21</ele>
        <time>2020-12-29T09:14:33Z</time>
      </trkpt>
      <trkpt lat="46.83971" lon="6.5251">
        <ele>1517.1</ele>
        <time>2020-12-29T09:14:51Z</time>
      </trkpt>
      <trkpt lat="46.83975" lon="6.52511">
        <ele>1517.58</ele>
        <time>2020-12-29T09:15:21Z</time>
      </trkpt>
      <trkpt lat="46.83984" lon="6.52516">
        <ele>1518.06</ele>
        <time>2020-12-29T09:15:39Z</time>
      </trkpt>
      <trkpt lat="46.83992" lon="6.5251">
        <ele>1519.98</ele>
        <time>2020-12-29T09:15:56Z</time>
      </trkpt>
      <trkpt lat="46.83997" lon="6.52505">
        <ele>1521.9</ele>
        <time>2020-12-29T09:16:11Z</time>
      </trkpt>
      <trkpt lat="46.84002" lon="6.52517">
        <ele>1524.79</ele>
        <time>2020-12-29T09:16:30Z</time>
      </trkpt>
      <trkpt lat="46.84008" lon="6.52535">
        <ele>1525.27</ele>
        <time>2020-12-29T09:16:50Z</time>
      </trkpt>
      <trkpt lat="46.84014" lon="6.52545">
        <ele>1526.23</ele>
        <time>2020-12-29T09:17:10Z</time>
      </trkpt>
      <trkpt lat="46.84026" lon="6.52553">
        <ele>1530.08</ele>
        <time>2020-12-29T09:17:30Z</time>
      </trkpt>
      <trkpt lat="46.84037" lon="6.52561">
        <ele>1532.96</ele>
        <time>2020-12-29T09:17:51Z</time>
      </trkpt>
      <trkpt lat="46.84045" lon="6.52567">
        <ele>1534.4</ele>
        <time>2020-12-29T09:18:10Z</time>
      </trkpt>
      <trkpt lat="46.84057" lon="6.52576">
        <ele>1536.8</ele>
        <time>2020-12-29T09:18:32Z</time>
      </trkpt>
      <trkpt lat="46.8406" lon="6.52577">
        <ele>1538.73</ele>
        <time>2020-12-29T09:18:52Z</time>
      </trkpt>
      <trkpt lat="46.84061" lon="6.52576">
        <ele>1540.17</ele>
        <time>2020-12-29T09:19:15Z</time>
      </trkpt>
      <trkpt lat="46.84061" lon="6.52577">
        <ele>1538.25</ele>
        <time>2020-12-29T09:19:47Z</time>
      </trkpt>
      <trkpt lat="46.84067" lon="6.52578">
        <ele>1538.25</ele>
        <time>2020-12-29T09:20:10Z</time>
      </trkpt>
      <trkpt lat="46.84077" lon="6.52583">
        <ele>1540.17</ele>
        <time>2020-12-29T09:20:28Z</time>
      </trkpt>
      <trkpt lat="46.84087" lon="6.52584">
        <ele>1543.05</ele>
        <time>2020-12-29T09:20:46Z</time>
      </trkpt>
      <trkpt lat="46.84096" lon="6.52584">
        <ele>1545.94</ele>
        <time>2020-12-29T09:21:02Z</time>
      </trkpt>
      <trkpt lat="46.84105" lon="6.52585">
        <ele>1547.86</ele>
        <time>2020-12-29T09:21:18Z</time>
      </trkpt>
      <trkpt lat="46.84117" lon="6.5259">
        <ele>1550.74</ele>
        <time>2020-12-29T09:21:37Z</time>
      </trkpt>
      <trkpt lat="46.84125" lon="6.52596">
        <ele>1553.63</ele>
        <time>2020-12-29T09:21:55Z</time>
      </trkpt>
      <trkpt lat="46.84137" lon="6.52603">
        <ele>1557.47</ele>
        <time>2020-12-29T09:22:14Z</time>
      </trkpt>
      <trkpt lat="46.84148" lon="6.52606">
        <ele>1560.36</ele>
        <time>2020-12-29T09:22:33Z</time>
      </trkpt>
      <trkpt lat="46.84156" lon="6.5261">
        <ele>1561.8</ele>
        <time>2020-12-29T09:22:49Z</time>
      </trkpt>
      <trkpt lat="46.84166" lon="6.52619">
        <ele>1563.24</ele>
        <time>2020-12-29T09:23:05Z</time>
      </trkpt>
      <trkpt lat="46.84177" lon="6.52623">
        <ele>1565.16</ele>
        <time>2020-12-29T09:23:25Z</time>
      </trkpt>
      <trkpt lat="46.84192" lon="6.5263">
        <ele>1567.57</ele>
        <time>2020-12-29T09:23:45Z</time>
      </trkpt>
      <trkpt lat="46.84202" lon="6.52643">
        <ele>1569.01</ele>
        <time>2020-12-29T09:24:03Z</time>
      </trkpt>
      <trkpt lat="46.84207" lon="6.52647">
        <ele>1569.01</ele>
        <time>2020-12-29T09:24:09Z</time>
      </trkpt>
      <trkpt lat="46.84222" lon="6.52667">
        <ele>1571.41</ele>
        <time>2020-12-29T09:24:32Z</time>
      </trkpt>
      <trkpt lat="46.84229" lon="6.52677">
        <ele>1572.37</ele>
        <time>2020-12-29T09:24:46Z</time>
      </trkpt>
      <trkpt lat="46.84232" lon="6.52682">
        <ele>1571.41</ele>
        <time>2020-12-29T09:25:00Z</time>
      </trkpt>
      <trkpt lat="46.84232" lon="6.52681">
        <ele>1570.93</ele>
        <time>2020-12-29T09:25:27Z</time>
      </trkpt>
      <trkpt lat="46.84233" lon="6.52682">
        <ele>1569.49</ele>
        <time>2020-12-29T09:25:54Z</time>
      </trkpt>
      <trkpt lat="46.84238" lon="6.52703">
        <ele>1570.93</ele>
        <time>2020-12-29T09:26:12Z</time>
      </trkpt>
      <trkpt lat="46.84246" lon="6.52718">
        <ele>1572.37</ele>
        <time>2020-12-29T09:26:27Z</time>
      </trkpt>
      <trkpt lat="46.84257" lon="6.52737">
        <ele>1573.82</ele>
        <time>2020-12-29T09:26:46Z</time>
      </trkpt>
      <trkpt lat="46.84268" lon="6.52762">
        <ele>1573.33</ele>
        <time>2020-12-29T09:27:09Z</time>
      </trkpt>
      <trkpt lat="46.84276" lon="6.5277">
        <ele>1574.3</ele>
        <time>2020-12-29T09:27:25Z</time>
      </trkpt>
      <trkpt lat="46.84284" lon="6.52792">
        <ele>1574.78</ele>
        <time>2020-12-29T09:27:43Z</time>
      </trkpt>
      <trkpt lat="46.84297" lon="6.52813">
        <ele>1575.26</ele>
        <time>2020-12-29T09:28:02Z</time>
      </trkpt>
      <trkpt lat="46.84307" lon="6.52824">
        <ele>1576.22</ele>
        <time>2020-12-29T09:28:19Z</time>
      </trkpt>
      <trkpt lat="46.8431" lon="6.52837">
        <ele>1576.7</ele>
        <time>2020-12-29T09:28:36Z</time>
      </trkpt>
      <trkpt lat="46.84318" lon="6.5286">
        <ele>1573.33</ele>
        <time>2020-12-29T09:28:56Z</time>
      </trkpt>
      <trkpt lat="46.84326" lon="6.52878">
        <ele>1570.93</ele>
        <time>2020-12-29T09:29:12Z</time>
      </trkpt>
      <trkpt lat="46.84328" lon="6.52885">
        <ele>1569.49</ele>
        <time>2020-12-29T09:29:34Z</time>
      </trkpt>
      <trkpt lat="46.84336" lon="6.52904">
        <ele>1568.05</ele>
        <time>2020-12-29T09:29:53Z</time>
      </trkpt>
      <trkpt lat="46.84345" lon="6.52924">
        <ele>1566.61</ele>
        <time>2020-12-29T09:30:10Z</time>
      </trkpt>
      <trkpt lat="46.84358" lon="6.52946">
        <ele>1566.12</ele>
        <time>2020-12-29T09:30:29Z</time>
      </trkpt>
      <trkpt lat="46.84368" lon="6.52967">
        <ele>1565.16</ele>
        <time>2020-12-29T09:30:47Z</time>
      </trkpt>
      <trkpt lat="46.84379" lon="6.52992">
        <ele>1563.72</ele>
        <time>2020-12-29T09:31:07Z</time>
      </trkpt>
      <trkpt lat="46.84389" lon="6.53014">
        <ele>1562.76</ele>
        <time>2020-12-29T09:31:24Z</time>
      </trkpt>
      <trkpt lat="46.84397" lon="6.53041">
        <ele>1560.36</ele>
        <time>2020-12-29T09:31:41Z</time>
      </trkpt>
      <trkpt lat="46.84399" lon="6.53046">
        <ele>1560.36</ele>
        <time>2020-12-29T09:31:45Z</time>
      </trkpt>
      <trkpt lat="46.84411" lon="6.53067">
        <ele>1559.4</ele>
        <time>2020-12-29T09:32:04Z</time>
      </trkpt>
      <trkpt lat="46.84415" lon="6.53091">
        <ele>1557.47</ele>
        <time>2020-12-29T09:32:19Z</time>
      </trkpt>
      <trkpt lat="46.84428" lon="6.53118">
        <ele>1554.59</ele>
        <time>2020-12-29T09:32:41Z</time>
      </trkpt>
      <trkpt lat="46.8444" lon="6.53131">
        <ele>1554.11</ele>
        <time>2020-12-29T09:32:59Z</time>
      </trkpt>
      <trkpt lat="46.84442" lon="6.53135">
        <ele>1553.63</ele>
        <time>2020-12-29T09:33:03Z</time>
      </trkpt>
      <trkpt lat="46.84455" lon="6.53146">
        <ele>1547.38</ele>
        <time>2020-12-29T09:33:22Z</time>
      </trkpt>
      <trkpt lat="46.84466" lon="6.5315">
        <ele>1543.53</ele>
        <time>2020-12-29T09:33:37Z</time>
      </trkpt>
      <trkpt lat="46.84477" lon="6.53164">
        <ele>1541.13</ele>
        <time>2020-12-29T09:33:51Z</time>
      </trkpt>
      <trkpt lat="46.84492" lon="6.53188">
        <ele>1538.25</ele>
        <time>2020-12-29T09:34:10Z</time>
      </trkpt>
      <trkpt lat="46.84509" lon="6.5321">
        <ele>1536.32</ele>
        <time>2020-12-29T09:34:30Z</time>
      </trkpt>
      <trkpt lat="46.84525" lon="6.53229">
        <ele>1531.52</ele>
        <time>2020-12-29T09:34:49Z</time>
      </trkpt>
      <trkpt lat="46.84543" lon="6.5325">
        <ele>1526.23</ele>
        <time>2020-12-29T09:35:09Z</time>
      </trkpt>
      <trkpt lat="46.84556" lon="6.53269">
        <ele>1522.39</ele>
        <time>2020-12-29T09:35:27Z</time>
      </trkpt>
      <trkpt lat="46.8457" lon="6.53282">
        <ele>1522.39</ele>
        <time>2020-12-29T09:35:46Z</time>
      </trkpt>
      <trkpt lat="46.84582" lon="6.533">
        <ele>1522.87</ele>
        <time>2020-12-29T09:36:02Z</time>
      </trkpt>
      <trkpt lat="46.84597" lon="6.53324">
        <ele>1523.83</ele>
        <time>2020-12-29T09:36:25Z</time>
      </trkpt>
      <trkpt lat="46.84615" lon="6.53348">
        <ele>1522.39</ele>
        <time>2020-12-29T09:36:48Z</time>
      </trkpt>
      <trkpt lat="46.84624" lon="6.53362">
        <ele>1522.39</ele>
        <time>2020-12-29T09:37:07Z</time>
      </trkpt>
      <trkpt lat="46.84633" lon="6.53374">
        <ele>1520.94</ele>
        <time>2020-12-29T09:37:23Z</time>
      </trkpt>
      <trkpt lat="46.84646" lon="6.53392">
        <ele>1519.02</ele>
        <time>2020-12-29T09:37:43Z</time>
      </trkpt>
      <trkpt lat="46.84658" lon="6.53407">
        <ele>1519.98</ele>
        <time>2020-12-29T09:38:01Z</time>
      </trkpt>
      <trkpt lat="46.84669" lon="6.53422">
        <ele>1521.42</ele>
        <time>2020-12-29T09:38:18Z</time>
      </trkpt>
      <trkpt lat="46.8468" lon="6.53436">
        <ele>1523.35</ele>
        <time>2020-12-29T09:38:36Z</time>
      </trkpt>
      <trkpt lat="46.84691" lon="6.5345">
        <ele>1524.31</ele>
        <time>2020-12-29T09:38:55Z</time>
      </trkpt>
      <trkpt lat="46.84703" lon="6.53466">
        <ele>1523.83</ele>
        <time>2020-12-29T09:39:13Z</time>
      </trkpt>
      <trkpt lat="46.84711" lon="6.53479">
        <ele>1524.31</ele>
        <time>2020-12-29T09:39:29Z</time>
      </trkpt>
      <trkpt lat="46.84724" lon="6.53499">
        <ele>1525.75</ele>
        <time>2020-12-29T09:39:50Z</time>
      </trkpt>
      <trkpt lat="46.84738" lon="6.53514">
        <ele>1526.71</ele>
        <time>2020-12-29T09:40:08Z</time>
      </trkpt>
      <trkpt lat="46.8475" lon="6.53532">
        <ele>1527.67</ele>
        <time>2020-12-29T09:40:29Z</time>
      </trkpt>
      <trkpt lat="46.84759" lon="6.53547">
        <ele>1529.59</ele>
        <time>2020-12-29T09:40:47Z</time>
      </trkpt>
      <trkpt lat="46.8477" lon="6.53559">
        <ele>1530.08</ele>
        <time>2020-12-29T09:41:06Z</time>
      </trkpt>
      <trkpt lat="46.8478" lon="6.53574">
        <ele>1532.96</ele>
        <time>2020-12-29T09:41:26Z</time>
      </trkpt>
      <trkpt lat="46.84793" lon="6.53585">
        <ele>1535.84</ele>
        <time>2020-12-29T09:41:46Z</time>
      </trkpt>
      <trkpt lat="46.84805" lon="6.53593">
        <ele>1538.25</ele>
        <time>2020-12-29T09:42:06Z</time>
      </trkpt>
      <trkpt lat="46.84819" lon="6.53606">
        <ele>1541.61</ele>
        <time>2020-12-29T09:42:28Z</time>
      </trkpt>
      <trkpt lat="46.84829" lon="6.53612">
        <ele>1543.05</ele>
        <time>2020-12-29T09:42:47Z</time>
      </trkpt>
      <trkpt lat="46.84841" lon="6.53624">
        <ele>1545.46</ele>
        <time>2020-12-29T09:43:06Z</time>
      </trkpt>
      <trkpt lat="46.84851" lon="6.53643">
        <ele>1545.46</ele>
        <time>2020-12-29T09:43:24Z</time>
      </trkpt>
      <trkpt lat="46.84869" lon="6.53658">
        <ele>1545.94</ele>
        <time>2020-12-29T09:43:46Z</time>
      </trkpt>
      <trkpt lat="46.84876" lon="6.53669">
        <ele>1546.42</ele>
        <time>2020-12-29T09:44:03Z</time>
      </trkpt>
      <trkpt lat="46.84888" lon="6.53675">
        <ele>1548.82</ele>
        <time>2020-12-29T09:44:21Z</time>
      </trkpt>
      <trkpt lat="46.84898" lon="6.53678">
        <ele>1550.74</ele>
        <time>2020-12-29T09:44:37Z</time>
      </trkpt>
      <trkpt lat="46.84909" lon="6.53688">
        <ele>1552.67</ele>
        <time>2020-12-29T09:44:55Z</time>
      </trkpt>
      <trkpt lat="46.84921" lon="6.537">
        <ele>1555.55</ele>
        <time>2020-12-29T09:45:14Z</time>
      </trkpt>
      <trkpt lat="46.84934" lon="6.53715">
        <ele>1557.47</ele>
        <time>2020-12-29T09:45:35Z</time>
      </trkpt>
      <trkpt lat="46.84945" lon="6.53728">
        <ele>1560.36</ele>
        <time>2020-12-29T09:45:54Z</time>
      </trkpt>
      <trkpt lat="46.84952" lon="6.53749">
        <ele>1560.36</ele>
        <time>2020-12-29T09:46:13Z</time>
      </trkpt>
      <trkpt lat="46.84957" lon="6.5376">
        <ele>1562.28</ele>
        <time>2020-12-29T09:46:27Z</time>
      </trkpt>
      <trkpt lat="46.84963" lon="6.53775">
        <ele>1563.72</ele>
        <time>2020-12-29T09:46:47Z</time>
      </trkpt>
      <trkpt lat="46.84968" lon="6.53791">
        <ele>1565.16</ele>
        <time>2020-12-29T09:47:08Z</time>
      </trkpt>
      <trkpt lat="46.84974" lon="6.53802">
        <ele>1568.05</ele>
        <time>2020-12-29T09:47:27Z</time>
      </trkpt>
      <trkpt lat="46.8498" lon="6.5381">
        <ele>1570.93</ele>
        <time>2020-12-29T09:47:46Z</time>
      </trkpt>
      <trkpt lat="46.84985" lon="6.53819">
        <ele>1573.33</ele>
        <time>2020-12-29T09:48:03Z</time>
      </trkpt>
      <trkpt lat="46.84993" lon="6.53832">
        <ele>1576.7</ele>
        <time>2020-12-29T09:48:25Z</time>
      </trkpt>
      <trkpt lat="46.84996" lon="6.5385">
        <ele>1576.7</ele>
        <time>2020-12-29T09:48:43Z</time>
      </trkpt>
      <trkpt lat="46.85005" lon="6.53864">
        <ele>1576.22</ele>
        <time>2020-12-29T09:49:05Z</time>
      </trkpt>
      <trkpt lat="46.85015" lon="6.53883">
        <ele>1576.7</ele>
        <time>2020-12-29T09:49:25Z</time>
      </trkpt>
      <trkpt lat="46.85025" lon="6.53886">
        <ele>1576.7</ele>
        <time>2020-12-29T09:49:44Z</time>
      </trkpt>
      <trkpt lat="46.85034" lon="6.53875">
        <ele>1579.1</ele>
        <time>2020-12-29T09:50:05Z</time>
      </trkpt>
      <trkpt lat="46.8504" lon="6.53866">
        <ele>1581.99</ele>
        <time>2020-12-29T09:50:20Z</time>
      </trkpt>
      <trkpt lat="46.8505" lon="6.53855">
        <ele>1585.35</ele>
        <time>2020-12-29T09:50:38Z</time>
      </trkpt>
      <trkpt lat="46.85062" lon="6.53845">
        <ele>1587.75</ele>
        <time>2020-12-29T09:50:58Z</time>
      </trkpt>
      <trkpt lat="46.85072" lon="6.53839">
        <ele>1590.16</ele>
        <time>2020-12-29T09:51:16Z</time>
      </trkpt>
      <trkpt lat="46.85085" lon="6.53836">
        <ele>1593.04</ele>
        <time>2020-12-29T09:51:34Z</time>
      </trkpt>
      <trkpt lat="46.85098" lon="6.53838">
        <ele>1594.48</ele>
        <time>2020-12-29T09:51:52Z</time>
      </trkpt>
      <trkpt lat="46.85114" lon="6.53846">
        <ele>1595.45</ele>
        <time>2020-12-29T09:52:10Z</time>
      </trkpt>
      <trkpt lat="46.85124" lon="6.53841">
        <ele>1596.89</ele>
        <time>2020-12-29T09:52:27Z</time>
      </trkpt>
      <trkpt lat="46.85134" lon="6.53833">
        <ele>1598.33</ele>
        <time>2020-12-29T09:52:46Z</time>
      </trkpt>
      <trkpt lat="46.85138" lon="6.53828">
        <ele>1598.81</ele>
        <time>2020-12-29T09:53:04Z</time>
      </trkpt>
      <trkpt lat="46.85151" lon="6.53838">
        <ele>1599.77</ele>
        <time>2020-12-29T09:53:23Z</time>
      </trkpt>
      <trkpt lat="46.85163" lon="6.53848">
        <ele>1600.25</ele>
        <time>2020-12-29T09:53:40Z</time>
      </trkpt>
      <trkpt lat="46.8517" lon="6.53839">
        <ele>1600.25</ele>
        <time>2020-12-29T09:53:56Z</time>
      </trkpt>
      <trkpt lat="46.85171" lon="6.53835">
        <ele>1601.69</ele>
        <time>2020-12-29T09:54:12Z</time>
      </trkpt>
      <trkpt lat="46.85176" lon="6.53833">
        <ele>1602.17</ele>
        <time>2020-12-29T09:54:35Z</time>
      </trkpt>
      <trkpt lat="46.85178" lon="6.53827">
        <ele>1602.17</ele>
        <time>2020-12-29T09:55:03Z</time>
      </trkpt>
      <trkpt lat="46.85179" lon="6.53826">
        <ele>1603.14</ele>
        <time>2020-12-29T09:55:25Z</time>
      </trkpt>
      <trkpt lat="46.85179" lon="6.53831">
        <ele>1601.21</ele>
        <time>2020-12-29T09:55:47Z</time>
      </trkpt>
      <trkpt lat="46.85179" lon="6.53833">
        <ele>1601.69</ele>
        <time>2020-12-29T09:56:05Z</time>
      </trkpt>
      <trkpt lat="46.8518" lon="6.53831">
        <ele>1601.21</ele>
        <time>2020-12-29T09:56:30Z</time>
      </trkpt>
      <trkpt lat="46.85177" lon="6.53844">
        <ele>1600.73</ele>
        <time>2020-12-29T09:56:46Z</time>
      </trkpt>
      <trkpt lat="46.85187" lon="6.53863">
        <ele>1595.45</ele>
        <time>2020-12-29T09:57:03Z</time>
      </trkpt>
      <trkpt lat="46.85193" lon="6.53871">
        <ele>1592.08</ele>
        <time>2020-12-29T09:57:17Z</time>
      </trkpt>
      <trkpt lat="46.85204" lon="6.53892">
        <ele>1586.31</ele>
        <time>2020-12-29T09:57:35Z</time>
      </trkpt>
      <trkpt lat="46.85212" lon="6.53905">
        <ele>1582.47</ele>
        <time>2020-12-29T09:57:48Z</time>
      </trkpt>
      <trkpt lat="46.85226" lon="6.53928">
        <ele>1578.62</ele>
        <time>2020-12-29T09:58:07Z</time>
      </trkpt>
      <trkpt lat="46.8524" lon="6.53952">
        <ele>1576.7</ele>
        <time>2020-12-29T09:58:28Z</time>
      </trkpt>
      <trkpt lat="46.85252" lon="6.53974">
        <ele>1574.78</ele>
        <time>2020-12-29T09:58:44Z</time>
      </trkpt>
      <trkpt lat="46.85267" lon="6.54001">
        <ele>1572.37</ele>
        <time>2020-12-29T09:59:04Z</time>
      </trkpt>
      <trkpt lat="46.85274" lon="6.5403">
        <ele>1569.01</ele>
        <time>2020-12-29T09:59:23Z</time>
      </trkpt>
      <trkpt lat="46.85282" lon="6.54056">
        <ele>1567.57</ele>
        <time>2020-12-29T09:59:42Z</time>
      </trkpt>
      <trkpt lat="46.85286" lon="6.54073">
        <ele>1566.61</ele>
        <time>2020-12-29T09:59:52Z</time>
      </trkpt>
      <trkpt lat="46.85297" lon="6.5409">
        <ele>1563.72</ele>
        <time>2020-12-29T10:00:07Z</time>
      </trkpt>
      <trkpt lat="46.85306" lon="6.54105">
        <ele>1560.84</ele>
        <time>2020-12-29T10:00:21Z</time>
      </trkpt>
      <trkpt lat="46.85316" lon="6.54122">
        <ele>1557.47</ele>
        <time>2020-12-29T10:00:37Z</time>
      </trkpt>
      <trkpt lat="46.85326" lon="6.54134">
        <ele>1554.11</ele>
        <time>2020-12-29T10:00:52Z</time>
      </trkpt>
      <trkpt lat="46.85335" lon="6.54146">
        <ele>1550.74</ele>
        <time>2020-12-29T10:01:04Z</time>
      </trkpt>
      <trkpt lat="46.85344" lon="6.54152">
        <ele>1547.86</ele>
        <time>2020-12-29T10:01:14Z</time>
      </trkpt>
      <trkpt lat="46.85346" lon="6.5416">
        <ele>1544.5</ele>
        <time>2020-12-29T10:01:30Z</time>
      </trkpt>
      <trkpt lat="46.85346" lon="6.54164">
        <ele>1544.5</ele>
        <time>2020-12-29T10:01:34Z</time>
      </trkpt>
      <trkpt lat="46.85348" lon="6.54184">
        <ele>1544.5</ele>
        <time>2020-12-29T10:01:48Z</time>
      </trkpt>
      <trkpt lat="46.85349" lon="6.54205">
        <ele>1544.98</ele>
        <time>2020-12-29T10:02:03Z</time>
      </trkpt>
      <trkpt lat="46.85351" lon="6.54211">
        <ele>1544.98</ele>
        <time>2020-12-29T10:02:08Z</time>
      </trkpt>
      <trkpt lat="46.85356" lon="6.54234">
        <ele>1545.46</ele>
        <time>2020-12-29T10:02:27Z</time>
      </trkpt>
      <trkpt lat="46.85362" lon="6.54246">
        <ele>1545.94</ele>
        <time>2020-12-29T10:02:44Z</time>
      </trkpt>
      <trkpt lat="46.85373" lon="6.54238">
        <ele>1545.94</ele>
        <time>2020-12-29T10:02:59Z</time>
      </trkpt>
      <trkpt lat="46.85385" lon="6.54238">
        <ele>1544.01</ele>
        <time>2020-12-29T10:03:10Z</time>
      </trkpt>
      <trkpt lat="46.85402" lon="6.54234">
        <ele>1536.8</ele>
        <time>2020-12-29T10:03:29Z</time>
      </trkpt>
      <trkpt lat="46.85418" lon="6.54236">
        <ele>1532</ele>
        <time>2020-12-29T10:03:47Z</time>
      </trkpt>
      <trkpt lat="46.85437" lon="6.54251">
        <ele>1527.19</ele>
        <time>2020-12-29T10:04:05Z</time>
      </trkpt>
      <trkpt lat="46.85442" lon="6.54249">
        <ele>1520.46</ele>
        <time>2020-12-29T10:04:24Z</time>
      </trkpt>
      <trkpt lat="46.85451" lon="6.54257">
        <ele>1516.62</ele>
        <time>2020-12-29T10:04:41Z</time>
      </trkpt>
      <trkpt lat="46.85468" lon="6.54277">
        <ele>1517.1</ele>
        <time>2020-12-29T10:04:59Z</time>
      </trkpt>
      <trkpt lat="46.85487" lon="6.54291">
        <ele>1514.21</ele>
        <time>2020-12-29T10:05:19Z</time>
      </trkpt>
      <trkpt lat="46.85505" lon="6.54298">
        <ele>1513.73</ele>
        <time>2020-12-29T10:05:39Z</time>
      </trkpt>
      <trkpt lat="46.85515" lon="6.54308">
        <ele>1507.48</ele>
        <time>2020-12-29T10:06:00Z</time>
      </trkpt>
      <trkpt lat="46.85528" lon="6.54318">
        <ele>1501.72</ele>
        <time>2020-12-29T10:06:20Z</time>
      </trkpt>
      <trkpt lat="46.8554" lon="6.54332">
        <ele>1504.6</ele>
        <time>2020-12-29T10:06:34Z</time>
      </trkpt>
      <trkpt lat="46.85552" lon="6.5434">
        <ele>1502.2</ele>
        <time>2020-12-29T10:06:49Z</time>
      </trkpt>
      <trkpt lat="46.85553" lon="6.54341">
        <ele>1501.24</ele>
        <time>2020-12-29T10:06:52Z</time>
      </trkpt>
      <trkpt lat="46.85562" lon="6.54345">
        <ele>1500.27</ele>
        <time>2020-12-29T10:07:04Z</time>
      </trkpt>
      <trkpt lat="46.85573" lon="6.54354">
        <ele>1497.87</ele>
        <time>2020-12-29T10:07:18Z</time>
      </trkpt>
      <trkpt lat="46.85592" lon="6.54362">
        <ele>1494.99</ele>
        <time>2020-12-29T10:07:39Z</time>
      </trkpt>
      <trkpt lat="46.85604" lon="6.54385">
        <ele>1491.62</ele>
        <time>2020-12-29T10:08:02Z</time>
      </trkpt>
      <trkpt lat="46.85613" lon="6.54407">
        <ele>1488.26</ele>
        <time>2020-12-29T10:08:24Z</time>
      </trkpt>
      <trkpt lat="46.85622" lon="6.5443">
        <ele>1486.82</ele>
        <time>2020-12-29T10:08:46Z</time>
      </trkpt>
      <trkpt lat="46.85634" lon="6.54449">
        <ele>1488.26</ele>
        <time>2020-12-29T10:09:08Z</time>
      </trkpt>
      <trkpt lat="46.85638" lon="6.54464">
        <ele>1488.74</ele>
        <time>2020-12-29T10:09:25Z</time>
      </trkpt>
      <trkpt lat="46.85645" lon="6.54475">
        <ele>1488.74</ele>
        <time>2020-12-29T10:09:39Z</time>
      </trkpt>
      <trkpt lat="46.85655" lon="6.54494">
        <ele>1489.22</ele>
        <time>2020-12-29T10:09:56Z</time>
      </trkpt>
      <trkpt lat="46.85662" lon="6.54506">
        <ele>1488.74</ele>
        <time>2020-12-29T10:10:10Z</time>
      </trkpt>
      <trkpt lat="46.85671" lon="6.54522">
        <ele>1488.26</ele>
        <time>2020-12-29T10:10:27Z</time>
      </trkpt>
      <trkpt lat="46.85681" lon="6.54539">
        <ele>1489.22</ele>
        <time>2020-12-29T10:10:44Z</time>
      </trkpt>
      <trkpt lat="46.85687" lon="6.5455">
        <ele>1491.62</ele>
        <time>2020-12-29T10:11:00Z</time>
      </trkpt>
      <trkpt lat="46.85699" lon="6.54563">
        <ele>1492.58</ele>
        <time>2020-12-29T10:11:14Z</time>
      </trkpt>
      <trkpt lat="46.8571" lon="6.5458">
        <ele>1492.1</ele>
        <time>2020-12-29T10:11:32Z</time>
      </trkpt>
      <trkpt lat="46.85718" lon="6.54593">
        <ele>1491.14</ele>
        <time>2020-12-29T10:11:48Z</time>
      </trkpt>
      <trkpt lat="46.8573" lon="6.5461">
        <ele>1490.66</ele>
        <time>2020-12-29T10:12:06Z</time>
      </trkpt>
      <trkpt lat="46.8574" lon="6.54625">
        <ele>1490.18</ele>
        <time>2020-12-29T10:12:22Z</time>
      </trkpt>
      <trkpt lat="46.85752" lon="6.54638">
        <ele>1490.66</ele>
        <time>2020-12-29T10:12:39Z</time>
      </trkpt>
      <trkpt lat="46.85754" lon="6.5464">
        <ele>1487.78</ele>
        <time>2020-12-29T10:12:47Z</time>
      </trkpt>
      <trkpt lat="46.85757" lon="6.54642">
        <ele>1487.78</ele>
        <time>2020-12-29T10:12:51Z</time>
      </trkpt>
      <trkpt lat="46.85767" lon="6.54652">
        <ele>1488.74</ele>
        <time>2020-12-29T10:13:05Z</time>
      </trkpt>
      <trkpt lat="46.85779" lon="6.54661">
        <ele>1487.78</ele>
        <time>2020-12-29T10:13:20Z</time>
      </trkpt>
      <trkpt lat="46.85789" lon="6.54673">
        <ele>1486.82</ele>
        <time>2020-12-29T10:13:35Z</time>
      </trkpt>
      <trkpt lat="46.85805" lon="6.54687">
        <ele>1486.34</ele>
        <time>2020-12-29T10:13:53Z</time>
      </trkpt>
      <trkpt lat="46.85822" lon="6.54702">
        <ele>1485.37</ele>
        <time>2020-12-29T10:14:13Z</time>
      </trkpt>
      <trkpt lat="46.85834" lon="6.5471">
        <ele>1484.89</ele>
        <time>2020-12-29T10:14:28Z</time>
      </trkpt>
      <trkpt lat="46.85853" lon="6.54722">
        <ele>1483.45</ele>
        <time>2020-12-29T10:14:48Z</time>
      </trkpt>
      <trkpt lat="46.85866" lon="6.54729">
        <ele>1482.97</ele>
        <time>2020-12-29T10:15:04Z</time>
      </trkpt>
      <trkpt lat="46.85884" lon="6.54739">
        <ele>1481.05</ele>
        <time>2020-12-29T10:15:24Z</time>
      </trkpt>
      <trkpt lat="46.859" lon="6.54754">
        <ele>1480.57</ele>
        <time>2020-12-29T10:15:43Z</time>
      </trkpt>
      <trkpt lat="46.85914" lon="6.54762">
        <ele>1479.61</ele>
        <time>2020-12-29T10:15:58Z</time>
      </trkpt>
      <trkpt lat="46.85926" lon="6.54773">
        <ele>1477.68</ele>
        <time>2020-12-29T10:16:11Z</time>
      </trkpt>
      <trkpt lat="46.85941" lon="6.54785">
        <ele>1476.72</ele>
        <time>2020-12-29T10:16:27Z</time>
      </trkpt>
      <trkpt lat="46.85955" lon="6.54796">
        <ele>1475.76</ele>
        <time>2020-12-29T10:16:44Z</time>
      </trkpt>
      <trkpt lat="46.85969" lon="6.54809">
        <ele>1473.84</ele>
        <time>2020-12-29T10:17:02Z</time>
      </trkpt>
      <trkpt lat="46.85983" lon="6.54817">
        <ele>1472.88</ele>
        <time>2020-12-29T10:17:18Z</time>
      </trkpt>
      <trkpt lat="46.85994" lon="6.54825">
        <ele>1472.4</ele>
        <time>2020-12-29T10:17:32Z</time>
      </trkpt>
      <trkpt lat="46.86007" lon="6.54834">
        <ele>1471.92</ele>
        <time>2020-12-29T10:17:48Z</time>
      </trkpt>
      <trkpt lat="46.86019" lon="6.54843">
        <ele>1470.95</ele>
        <time>2020-12-29T10:18:03Z</time>
      </trkpt>
      <trkpt lat="46.86036" lon="6.54857">
        <ele>1471.44</ele>
        <time>2020-12-29T10:18:21Z</time>
      </trkpt>
      <trkpt lat="46.8605" lon="6.54868">
        <ele>1471.92</ele>
        <time>2020-12-29T10:18:38Z</time>
      </trkpt>
      <trkpt lat="46.8606" lon="6.54877">
        <ele>1472.4</ele>
        <time>2020-12-29T10:18:51Z</time>
      </trkpt>
      <trkpt lat="46.86062" lon="6.5488">
        <ele>1472.88</ele>
        <time>2020-12-29T10:18:54Z</time>
      </trkpt>
      <trkpt lat="46.86064" lon="6.54895">
        <ele>1473.84</ele>
        <time>2020-12-29T10:19:08Z</time>
      </trkpt>
      <trkpt lat="46.86064" lon="6.54911">
        <ele>1471.44</ele>
        <time>2020-12-29T10:19:23Z</time>
      </trkpt>
      <trkpt lat="46.8606" lon="6.54924">
        <ele>1469.99</ele>
        <time>2020-12-29T10:19:35Z</time>
      </trkpt>
      <trkpt lat="46.86055" lon="6.54936">
        <ele>1469.03</ele>
        <time>2020-12-29T10:19:47Z</time>
      </trkpt>
      <trkpt lat="46.86047" lon="6.54946">
        <ele>1469.03</ele>
        <time>2020-12-29T10:20:03Z</time>
      </trkpt>
      <trkpt lat="46.86039" lon="6.54957">
        <ele>1471.44</ele>
        <time>2020-12-29T10:20:18Z</time>
      </trkpt>
      <trkpt lat="46.86029" lon="6.5497">
        <ele>1473.36</ele>
        <time>2020-12-29T10:20:34Z</time>
      </trkpt>
      <trkpt lat="46.86027" lon="6.54976">
        <ele>1474.32</ele>
        <time>2020-12-29T10:20:50Z</time>
      </trkpt>
      <trkpt lat="46.8602" lon="6.54989">
        <ele>1475.28</ele>
        <time>2020-12-29T10:21:08Z</time>
      </trkpt>
      <trkpt lat="46.86018" lon="6.54995">
        <ele>1474.8</ele>
        <time>2020-12-29T10:21:14Z</time>
      </trkpt>
      <trkpt lat="46.86009" lon="6.55011">
        <ele>1476.24</ele>
        <time>2020-12-29T10:21:28Z</time>
      </trkpt>
      <trkpt lat="46.86001" lon="6.55023">
        <ele>1476.24</ele>
        <time>2020-12-29T10:21:41Z</time>
      </trkpt>
      <trkpt lat="46.8599" lon="6.55037">
        <ele>1475.76</ele>
        <time>2020-12-29T10:21:56Z</time>
      </trkpt>
      <trkpt lat="46.8598" lon="6.55051">
        <ele>1475.28</ele>
        <time>2020-12-29T10:22:12Z</time>
      </trkpt>
      <trkpt lat="46.8597" lon="6.55064">
        <ele>1474.32</ele>
        <time>2020-12-29T10:22:29Z</time>
      </trkpt>
      <trkpt lat="46.8596" lon="6.55074">
        <ele>1474.32</ele>
        <time>2020-12-29T10:22:47Z</time>
      </trkpt>
      <trkpt lat="46.85953" lon="6.55089">
        <ele>1476.24</ele>
        <time>2020-12-29T10:23:05Z</time>
      </trkpt>
      <trkpt lat="46.85946" lon="6.55102">
        <ele>1476.24</ele>
        <time>2020-12-29T10:23:22Z</time>
      </trkpt>
      <trkpt lat="46.85944" lon="6.55111">
        <ele>1476.72</ele>
        <time>2020-12-29T10:23:38Z</time>
      </trkpt>
      <trkpt lat="46.85944" lon="6.5512">
        <ele>1478.65</ele>
        <time>2020-12-29T10:23:51Z</time>
      </trkpt>
      <trkpt lat="46.8594" lon="6.55132">
        <ele>1480.09</ele>
        <time>2020-12-29T10:24:07Z</time>
      </trkpt>
      <trkpt lat="46.85936" lon="6.55147">
        <ele>1482.01</ele>
        <time>2020-12-29T10:24:24Z</time>
      </trkpt>
      <trkpt lat="46.85939" lon="6.5516">
        <ele>1482.01</ele>
        <time>2020-12-29T10:24:37Z</time>
      </trkpt>
      <trkpt lat="46.85947" lon="6.5517">
        <ele>1481.53</ele>
        <time>2020-12-29T10:24:50Z</time>
      </trkpt>
      <trkpt lat="46.85957" lon="6.5518">
        <ele>1481.53</ele>
        <time>2020-12-29T10:25:05Z</time>
      </trkpt>
      <trkpt lat="46.85965" lon="6.55185">
        <ele>1481.53</ele>
        <time>2020-12-29T10:25:21Z</time>
      </trkpt>
      <trkpt lat="46.85975" lon="6.5519">
        <ele>1481.53</ele>
        <time>2020-12-29T10:25:39Z</time>
      </trkpt>
      <trkpt lat="46.85973" lon="6.55194">
        <ele>1482.01</ele>
        <time>2020-12-29T10:25:59Z</time>
      </trkpt>
      <trkpt lat="46.85971" lon="6.55195">
        <ele>1479.13</ele>
        <time>2020-12-29T10:26:17Z</time>
      </trkpt>
      <trkpt lat="46.85973" lon="6.55196">
        <ele>1476.72</ele>
        <time>2020-12-29T10:26:53Z</time>
      </trkpt>
      <trkpt lat="46.85971" lon="6.55198">
        <ele>1477.2</ele>
        <time>2020-12-29T10:27:21Z</time>
      </trkpt>
      <trkpt lat="46.85971" lon="6.55199">
        <ele>1479.61</ele>
        <time>2020-12-29T10:27:49Z</time>
      </trkpt>
      <trkpt lat="46.85971" lon="6.55194">
        <ele>1481.05</ele>
        <time>2020-12-29T10:28:03Z</time>
      </trkpt>
      <trkpt lat="46.85976" lon="6.55198">
        <ele>1480.57</ele>
        <time>2020-12-29T10:28:19Z</time>
      </trkpt>
      <trkpt lat="46.85975" lon="6.55197">
        <ele>1477.2</ele>
        <time>2020-12-29T10:28:39Z</time>
      </trkpt>
      <trkpt lat="46.85975" lon="6.55197">
        <ele>1477.2</ele>
        <time>2020-12-29T10:29:04Z</time>
      </trkpt>
      <trkpt lat="46.85972" lon="6.55195">
        <ele>1480.57</ele>
        <time>2020-12-29T10:29:21Z</time>
      </trkpt>
      <trkpt lat="46.85972" lon="6.55194">
        <ele>1483.93</ele>
        <time>2020-12-29T10:29:42Z</time>
      </trkpt>
      <trkpt lat="46.85972" lon="6.55194">
        <ele>1484.41</ele>
        <time>2020-12-29T10:30:06Z</time>
      </trkpt>
      <trkpt lat="46.85972" lon="6.55195">
        <ele>1483.45</ele>
        <time>2020-12-29T10:30:32Z</time>
      </trkpt>
      <trkpt lat="46.85974" lon="6.55193">
        <ele>1482.49</ele>
        <time>2020-12-29T10:31:01Z</time>
      </trkpt>
      <trkpt lat="46.85971" lon="6.55194">
        <ele>1483.93</ele>
        <time>2020-12-29T10:31:31Z</time>
      </trkpt>
      <trkpt lat="46.85972" lon="6.55193">
        <ele>1483.93</ele>
        <time>2020-12-29T10:31:58Z</time>
      </trkpt>
      <trkpt lat="46.85971" lon="6.55192">
        <ele>1487.78</ele>
        <time>2020-12-29T10:32:24Z</time>
      </trkpt>
      <trkpt lat="46.85972" lon="6.55191">
        <ele>1488.74</ele>
        <time>2020-12-29T10:32:50Z</time>
      </trkpt>
      <trkpt lat="46.85971" lon="6.55191">
        <ele>1485.85</ele>
        <time>2020-12-29T10:33:16Z</time>
      </trkpt>
      <trkpt lat="46.85972" lon="6.55192">
        <ele>1486.34</ele>
        <time>2020-12-29T10:33:45Z</time>
      </trkpt>
      <trkpt lat="46.85974" lon="6.55193">
        <ele>1483.45</ele>
        <time>2020-12-29T10:34:20Z</time>
      </trkpt>
      <trkpt lat="46.85974" lon="6.55193">
        <ele>1483.45</ele>
        <time>2020-12-29T10:34:51Z</time>
      </trkpt>
      <trkpt lat="46.85974" lon="6.55195">
        <ele>1482.49</ele>
        <time>2020-12-29T10:35:23Z</time>
      </trkpt>
      <trkpt lat="46.85972" lon="6.55193">
        <ele>1484.41</ele>
        <time>2020-12-29T10:35:48Z</time>
      </trkpt>
      <trkpt lat="46.85975" lon="6.55197">
        <ele>1485.37</ele>
        <time>2020-12-29T10:36:21Z</time>
      </trkpt>
      <trkpt lat="46.85974" lon="6.55197">
        <ele>1485.85</ele>
        <time>2020-12-29T10:36:54Z</time>
      </trkpt>
      <trkpt lat="46.85975" lon="6.55198">
        <ele>1485.85</ele>
        <time>2020-12-29T10:37:26Z</time>
      </trkpt>
      <trkpt lat="46.85972" lon="6.55194">
        <ele>1486.82</ele>
        <time>2020-12-29T10:37:57Z</time>
      </trkpt>
      <trkpt lat="46.85972" lon="6.55193">
        <ele>1486.34</ele>
        <time>2020-12-29T10:38:46Z</time>
      </trkpt>
      <trkpt lat="46.85972" lon="6.55194">
        <ele>1485.85</ele>
        <time>2020-12-29T10:39:14Z</time>
      </trkpt>
      <trkpt lat="46.85974" lon="6.55196">
        <ele>1485.37</ele>
        <time>2020-12-29T10:39:52Z</time>
      </trkpt>
      <trkpt lat="46.85976" lon="6.55197">
        <ele>1484.41</ele>
        <time>2020-12-29T10:40:23Z</time>
      </trkpt>
      <trkpt lat="46.85973" lon="6.55196">
        <ele>1485.85</ele>
        <time>2020-12-29T10:40:58Z</time>
      </trkpt>
      <trkpt lat="46.85973" lon="6.55195">
        <ele>1484.41</ele>
        <time>2020-12-29T10:41:39Z</time>
      </trkpt>
      <trkpt lat="46.85972" lon="6.55195">
        <ele>1483.93</ele>
        <time>2020-12-29T10:42:07Z</time>
      </trkpt>
      <trkpt lat="46.85974" lon="6.55196">
        <ele>1486.34</ele>
        <time>2020-12-29T10:42:49Z</time>
      </trkpt>
      <trkpt lat="46.85976" lon="6.55201">
        <ele>1484.89</ele>
        <time>2020-12-29T10:43:14Z</time>
      </trkpt>
      <trkpt lat="46.85974" lon="6.55197">
        <ele>1483.93</ele>
        <time>2020-12-29T10:43:45Z</time>
      </trkpt>
      <trkpt lat="46.85974" lon="6.55195">
        <ele>1482.97</ele>
        <time>2020-12-29T10:44:26Z</time>
      </trkpt>
      <trkpt lat="46.85975" lon="6.55196">
        <ele>1484.41</ele>
        <time>2020-12-29T10:45:02Z</time>
      </trkpt>
      <trkpt lat="46.85974" lon="6.55197">
        <ele>1482.49</ele>
        <time>2020-12-29T10:45:18Z</time>
      </trkpt>
      <trkpt lat="46.85976" lon="6.55194">
        <ele>1482.97</ele>
        <time>2020-12-29T10:45:38Z</time>
      </trkpt>
      <trkpt lat="46.85977" lon="6.55193">
        <ele>1482.49</ele>
        <time>2020-12-29T10:46:05Z</time>
      </trkpt>
      <trkpt lat="46.85974" lon="6.55193">
        <ele>1483.45</ele>
        <time>2020-12-29T10:46:27Z</time>
      </trkpt>
      <trkpt lat="46.85972" lon="6.55196">
        <ele>1482.49</ele>
        <time>2020-12-29T10:46:45Z</time>
      </trkpt>
      <trkpt lat="46.85973" lon="6.55195">
        <ele>1482.01</ele>
        <time>2020-12-29T10:47:08Z</time>
      </trkpt>
      <trkpt lat="46.85972" lon="6.55195">
        <ele>1482.97</ele>
        <time>2020-12-29T10:47:28Z</time>
      </trkpt>
      <trkpt lat="46.85972" lon="6.55194">
        <ele>1484.89</ele>
        <time>2020-12-29T10:47:49Z</time>
      </trkpt>
      <trkpt lat="46.85977" lon="6.55195">
        <ele>1484.41</ele>
        <time>2020-12-29T10:48:17Z</time>
      </trkpt>
      <trkpt lat="46.85971" lon="6.55188">
        <ele>1482.49</ele>
        <time>2020-12-29T10:48:31Z</time>
      </trkpt>
      <trkpt lat="46.8596" lon="6.55184">
        <ele>1482.49</ele>
        <time>2020-12-29T10:48:44Z</time>
      </trkpt>
      <trkpt lat="46.85957" lon="6.55186">
        <ele>1482.49</ele>
        <time>2020-12-29T10:48:47Z</time>
      </trkpt>
      <trkpt lat="46.85948" lon="6.55198">
        <ele>1483.45</ele>
        <time>2020-12-29T10:49:01Z</time>
      </trkpt>
      <trkpt lat="46.85945" lon="6.55215">
        <ele>1483.45</ele>
        <time>2020-12-29T10:49:15Z</time>
      </trkpt>
      <trkpt lat="46.85945" lon="6.55224">
        <ele>1482.97</ele>
        <time>2020-12-29T10:49:22Z</time>
      </trkpt>
      <trkpt lat="46.85943" lon="6.55248">
        <ele>1483.45</ele>
        <time>2020-12-29T10:49:40Z</time>
      </trkpt>
      <trkpt lat="46.8594" lon="6.55265">
        <ele>1483.93</ele>
        <time>2020-12-29T10:49:57Z</time>
      </trkpt>
      <trkpt lat="46.85939" lon="6.55267">
        <ele>1483.93</ele>
        <time>2020-12-29T10:49:59Z</time>
      </trkpt>
      <trkpt lat="46.85923" lon="6.55274">
        <ele>1482.97</ele>
        <time>2020-12-29T10:50:16Z</time>
      </trkpt>
      <trkpt lat="46.85912" lon="6.55266">
        <ele>1482.49</ele>
        <time>2020-12-29T10:50:28Z</time>
      </trkpt>
      <trkpt lat="46.859" lon="6.55262">
        <ele>1482.01</ele>
        <time>2020-12-29T10:50:37Z</time>
      </trkpt>
      <trkpt lat="46.85886" lon="6.55281">
        <ele>1482.49</ele>
        <time>2020-12-29T10:50:56Z</time>
      </trkpt>
      <trkpt lat="46.85893" lon="6.55301">
        <ele>1481.05</ele>
        <time>2020-12-29T10:51:14Z</time>
      </trkpt>
      <trkpt lat="46.85906" lon="6.5533">
        <ele>1477.68</ele>
        <time>2020-12-29T10:51:37Z</time>
      </trkpt>
      <trkpt lat="46.85914" lon="6.55354">
        <ele>1473.84</ele>
        <time>2020-12-29T10:51:57Z</time>
      </trkpt>
      <trkpt lat="46.8592" lon="6.5538">
        <ele>1468.55</ele>
        <time>2020-12-29T10:52:20Z</time>
      </trkpt>
      <trkpt lat="46.85926" lon="6.55398">
        <ele>1464.23</ele>
        <time>2020-12-29T10:52:37Z</time>
      </trkpt>
      <trkpt lat="46.85935" lon="6.55416">
        <ele>1462.3</ele>
        <time>2020-12-29T10:52:57Z</time>
      </trkpt>
      <trkpt lat="46.85933" lon="6.55434">
        <ele>1464.71</ele>
        <time>2020-12-29T10:53:15Z</time>
      </trkpt>
      <trkpt lat="46.85928" lon="6.55439">
        <ele>1469.99</ele>
        <time>2020-12-29T10:53:37Z</time>
      </trkpt>
      <trkpt lat="46.85922" lon="6.55445">
        <ele>1476.72</ele>
        <time>2020-12-29T10:53:53Z</time>
      </trkpt>
      <trkpt lat="46.8591" lon="6.55451">
        <ele>1478.65</ele>
        <time>2020-12-29T10:54:11Z</time>
      </trkpt>
      <trkpt lat="46.85898" lon="6.55456">
        <ele>1480.09</ele>
        <time>2020-12-29T10:54:30Z</time>
      </trkpt>
      <trkpt lat="46.85893" lon="6.5546">
        <ele>1480.57</ele>
        <time>2020-12-29T10:54:47Z</time>
      </trkpt>
      <trkpt lat="46.85892" lon="6.5548">
        <ele>1479.61</ele>
        <time>2020-12-29T10:55:04Z</time>
      </trkpt>
      <trkpt lat="46.85893" lon="6.55508">
        <ele>1476.24</ele>
        <time>2020-12-29T10:55:24Z</time>
      </trkpt>
      <trkpt lat="46.85896" lon="6.55538">
        <ele>1472.88</ele>
        <time>2020-12-29T10:55:46Z</time>
      </trkpt>
      <trkpt lat="46.85896" lon="6.55543">
        <ele>1471.92</ele>
        <time>2020-12-29T10:55:50Z</time>
      </trkpt>
      <trkpt lat="46.85896" lon="6.55567">
        <ele>1479.13</ele>
        <time>2020-12-29T10:56:04Z</time>
      </trkpt>
      <trkpt lat="46.85898" lon="6.55579">
        <ele>1479.61</ele>
        <time>2020-12-29T10:56:18Z</time>
      </trkpt>
      <trkpt lat="46.85899" lon="6.5559">
        <ele>1478.65</ele>
        <time>2020-12-29T10:56:26Z</time>
      </trkpt>
      <trkpt lat="46.85899" lon="6.55622">
        <ele>1475.28</ele>
        <time>2020-12-29T10:56:44Z</time>
      </trkpt>
      <trkpt lat="46.859" lon="6.55624">
        <ele>1474.8</ele>
        <time>2020-12-29T10:56:45Z</time>
      </trkpt>
      <trkpt lat="46.85912" lon="6.55652">
        <ele>1471.44</ele>
        <time>2020-12-29T10:57:04Z</time>
      </trkpt>
      <trkpt lat="46.85919" lon="6.55676">
        <ele>1469.51</ele>
        <time>2020-12-29T10:57:21Z</time>
      </trkpt>
      <trkpt lat="46.85925" lon="6.55691">
        <ele>1467.11</ele>
        <time>2020-12-29T10:57:35Z</time>
      </trkpt>
      <trkpt lat="46.8592" lon="6.55706">
        <ele>1464.71</ele>
        <time>2020-12-29T10:57:54Z</time>
      </trkpt>
      <trkpt lat="46.85915" lon="6.55728">
        <ele>1457.98</ele>
        <time>2020-12-29T10:58:12Z</time>
      </trkpt>
      <trkpt lat="46.85906" lon="6.55738">
        <ele>1455.09</ele>
        <time>2020-12-29T10:58:22Z</time>
      </trkpt>
      <trkpt lat="46.85899" lon="6.55757">
        <ele>1450.77</ele>
        <time>2020-12-29T10:58:36Z</time>
      </trkpt>
      <trkpt lat="46.8589" lon="6.55787">
        <ele>1448.36</ele>
        <time>2020-12-29T10:58:55Z</time>
      </trkpt>
      <trkpt lat="46.85887" lon="6.5581">
        <ele>1447.4</ele>
        <time>2020-12-29T10:59:10Z</time>
      </trkpt>
      <trkpt lat="46.85892" lon="6.5583">
        <ele>1444.52</ele>
        <time>2020-12-29T10:59:26Z</time>
      </trkpt>
      <trkpt lat="46.85901" lon="6.55839">
        <ele>1445</ele>
        <time>2020-12-29T10:59:39Z</time>
      </trkpt>
      <trkpt lat="46.85907" lon="6.55841">
        <ele>1445.96</ele>
        <time>2020-12-29T10:59:48Z</time>
      </trkpt>
      <trkpt lat="46.85912" lon="6.55845">
        <ele>1445.96</ele>
        <time>2020-12-29T10:59:53Z</time>
      </trkpt>
      <trkpt lat="46.85914" lon="6.55847">
        <ele>1445.48</ele>
        <time>2020-12-29T10:59:55Z</time>
      </trkpt>
      <trkpt lat="46.8592" lon="6.55854">
        <ele>1444.52</ele>
        <time>2020-12-29T11:00:05Z</time>
      </trkpt>
      <trkpt lat="46.85926" lon="6.55867">
        <ele>1443.56</ele>
        <time>2020-12-29T11:00:15Z</time>
      </trkpt>
      <trkpt lat="46.85928" lon="6.55873">
        <ele>1442.6</ele>
        <time>2020-12-29T11:00:20Z</time>
      </trkpt>
      <trkpt lat="46.8593" lon="6.55878">
        <ele>1441.63</ele>
        <time>2020-12-29T11:00:24Z</time>
      </trkpt>
      <trkpt lat="46.85933" lon="6.55885">
        <ele>1440.67</ele>
        <time>2020-12-29T11:00:29Z</time>
      </trkpt>
      <trkpt lat="46.85939" lon="6.55902">
        <ele>1438.75</ele>
        <time>2020-12-29T11:00:42Z</time>
      </trkpt>
      <trkpt lat="46.85943" lon="6.55915">
        <ele>1438.75</ele>
        <time>2020-12-29T11:00:52Z</time>
      </trkpt>
      <trkpt lat="46.8595" lon="6.55935">
        <ele>1439.23</ele>
        <time>2020-12-29T11:01:06Z</time>
      </trkpt>
      <trkpt lat="46.85956" lon="6.55958">
        <ele>1439.71</ele>
        <time>2020-12-29T11:01:20Z</time>
      </trkpt>
      <trkpt lat="46.85958" lon="6.55971">
        <ele>1439.71</ele>
        <time>2020-12-29T11:01:28Z</time>
      </trkpt>
      <trkpt lat="46.85961" lon="6.55994">
        <ele>1439.71</ele>
        <time>2020-12-29T11:01:42Z</time>
      </trkpt>
      <trkpt lat="46.85964" lon="6.56017">
        <ele>1438.27</ele>
        <time>2020-12-29T11:01:56Z</time>
      </trkpt>
      <trkpt lat="46.85969" lon="6.56032">
        <ele>1438.75</ele>
        <time>2020-12-29T11:02:06Z</time>
      </trkpt>
      <trkpt lat="46.85973" lon="6.56038">
        <ele>1438.75</ele>
        <time>2020-12-29T11:02:11Z</time>
      </trkpt>
      <trkpt lat="46.85984" lon="6.56052">
        <ele>1438.75</ele>
        <time>2020-12-29T11:02:23Z</time>
      </trkpt>
      <trkpt lat="46.85987" lon="6.5606">
        <ele>1438.75</ele>
        <time>2020-12-29T11:02:29Z</time>
      </trkpt>
      <trkpt lat="46.8599" lon="6.56068">
        <ele>1439.23</ele>
        <time>2020-12-29T11:02:35Z</time>
      </trkpt>
      <trkpt lat="46.85991" lon="6.56071">
        <ele>1439.23</ele>
        <time>2020-12-29T11:02:37Z</time>
      </trkpt>
      <trkpt lat="46.85991" lon="6.56076">
        <ele>1438.75</ele>
        <time>2020-12-29T11:02:41Z</time>
      </trkpt>
      <trkpt lat="46.85996" lon="6.56093">
        <ele>1437.31</ele>
        <time>2020-12-29T11:02:54Z</time>
      </trkpt>
      <trkpt lat="46.85998" lon="6.56113">
        <ele>1435.87</ele>
        <time>2020-12-29T11:03:08Z</time>
      </trkpt>
      <trkpt lat="46.85998" lon="6.56135">
        <ele>1435.39</ele>
        <time>2020-12-29T11:03:23Z</time>
      </trkpt>
      <trkpt lat="46.86" lon="6.56147">
        <ele>1434.91</ele>
        <time>2020-12-29T11:03:31Z</time>
      </trkpt>
      <trkpt lat="46.86003" lon="6.56162">
        <ele>1434.91</ele>
        <time>2020-12-29T11:03:41Z</time>
      </trkpt>
      <trkpt lat="46.86004" lon="6.56164">
        <ele>1434.91</ele>
        <time>2020-12-29T11:03:43Z</time>
      </trkpt>
      <trkpt lat="46.86006" lon="6.56178">
        <ele>1434.42</ele>
        <time>2020-12-29T11:03:52Z</time>
      </trkpt>
      <trkpt lat="46.85999" lon="6.56197">
        <ele>1433.46</ele>
        <time>2020-12-29T11:04:07Z</time>
      </trkpt>
      <trkpt lat="46.85999" lon="6.56212">
        <ele>1433.46</ele>
        <time>2020-12-29T11:04:21Z</time>
      </trkpt>
      <trkpt lat="46.86002" lon="6.56219">
        <ele>1432.5</ele>
        <time>2020-12-29T11:04:28Z</time>
      </trkpt>
      <trkpt lat="46.86006" lon="6.56227">
        <ele>1429.62</ele>
        <time>2020-12-29T11:04:39Z</time>
      </trkpt>
      <trkpt lat="46.86005" lon="6.56228">
        <ele>1429.14</ele>
        <time>2020-12-29T11:04:40Z</time>
      </trkpt>
      <trkpt lat="46.85999" lon="6.56258">
        <ele>1428.66</ele>
        <time>2020-12-29T11:04:56Z</time>
      </trkpt>
      <trkpt lat="46.85997" lon="6.56272">
        <ele>1427.21</ele>
        <time>2020-12-29T11:05:04Z</time>
      </trkpt>
      <trkpt lat="46.85996" lon="6.56281">
        <ele>1425.77</ele>
        <time>2020-12-29T11:05:09Z</time>
      </trkpt>
      <trkpt lat="46.85994" lon="6.56293">
        <ele>1424.81</ele>
        <time>2020-12-29T11:05:16Z</time>
      </trkpt>
      <trkpt lat="46.85991" lon="6.5632">
        <ele>1424.33</ele>
        <time>2020-12-29T11:05:32Z</time>
      </trkpt>
      <trkpt lat="46.85985" lon="6.56338">
        <ele>1422.89</ele>
        <time>2020-12-29T11:05:45Z</time>
      </trkpt>
      <trkpt lat="46.85982" lon="6.56361">
        <ele>1421.45</ele>
        <time>2020-12-29T11:06:00Z</time>
      </trkpt>
      <trkpt lat="46.85981" lon="6.5637">
        <ele>1421.45</ele>
        <time>2020-12-29T11:06:06Z</time>
      </trkpt>
      <trkpt lat="46.85977" lon="6.5638">
        <ele>1421.93</ele>
        <time>2020-12-29T11:06:13Z</time>
      </trkpt>
      <trkpt lat="46.85958" lon="6.56394">
        <ele>1419.52</ele>
        <time>2020-12-29T11:06:31Z</time>
      </trkpt>
      <trkpt lat="46.85956" lon="6.56394">
        <ele>1419.52</ele>
        <time>2020-12-29T11:06:32Z</time>
      </trkpt>
      <trkpt lat="46.85939" lon="6.56379">
        <ele>1419.04</ele>
        <time>2020-12-29T11:06:50Z</time>
      </trkpt>
      <trkpt lat="46.85921" lon="6.56368">
        <ele>1417.12</ele>
        <time>2020-12-29T11:07:08Z</time>
      </trkpt>
      <trkpt lat="46.85902" lon="6.56362">
        <ele>1415.68</ele>
        <time>2020-12-29T11:07:26Z</time>
      </trkpt>
      <trkpt lat="46.85884" lon="6.56353">
        <ele>1414.72</ele>
        <time>2020-12-29T11:07:43Z</time>
      </trkpt>
      <trkpt lat="46.85877" lon="6.56347">
        <ele>1413.76</ele>
        <time>2020-12-29T11:07:51Z</time>
      </trkpt>
      <trkpt lat="46.85875" lon="6.56346">
        <ele>1413.76</ele>
        <time>2020-12-29T11:07:53Z</time>
      </trkpt>
      <trkpt lat="46.85861" lon="6.56332">
        <ele>1411.83</ele>
        <time>2020-12-29T11:08:08Z</time>
      </trkpt>
      <trkpt lat="46.85848" lon="6.56317">
        <ele>1409.43</ele>
        <time>2020-12-29T11:08:24Z</time>
      </trkpt>
      <trkpt lat="46.85839" lon="6.56306">
        <ele>1407.99</ele>
        <time>2020-12-29T11:08:35Z</time>
      </trkpt>
      <trkpt lat="46.85828" lon="6.5629">
        <ele>1405.58</ele>
        <time>2020-12-29T11:08:49Z</time>
      </trkpt>
      <trkpt lat="46.85818" lon="6.56275">
        <ele>1403.66</ele>
        <time>2020-12-29T11:09:03Z</time>
      </trkpt>
      <trkpt lat="46.85815" lon="6.56271">
        <ele>1403.66</ele>
        <time>2020-12-29T11:09:07Z</time>
      </trkpt>
      <trkpt lat="46.85808" lon="6.56261">
        <ele>1401.74</ele>
        <time>2020-12-29T11:09:19Z</time>
      </trkpt>
      <trkpt lat="46.85806" lon="6.56261">
        <ele>1402.7</ele>
        <time>2020-12-29T11:09:37Z</time>
      </trkpt>
      <trkpt lat="46.85794" lon="6.56262">
        <ele>1400.3</ele>
        <time>2020-12-29T11:09:48Z</time>
      </trkpt>
      <trkpt lat="46.85777" lon="6.5626">
        <ele>1396.45</ele>
        <time>2020-12-29T11:10:07Z</time>
      </trkpt>
      <trkpt lat="46.8576" lon="6.56268">
        <ele>1391.65</ele>
        <time>2020-12-29T11:10:26Z</time>
      </trkpt>
      <trkpt lat="46.8574" lon="6.56278">
        <ele>1386.36</ele>
        <time>2020-12-29T11:10:45Z</time>
      </trkpt>
      <trkpt lat="46.85723" lon="6.56273">
        <ele>1378.67</ele>
        <time>2020-12-29T11:11:03Z</time>
      </trkpt>
      <trkpt lat="46.85719" lon="6.56271">
        <ele>1374.34</ele>
        <time>2020-12-29T11:11:21Z</time>
      </trkpt>
      <trkpt lat="46.85704" lon="6.56267">
        <ele>1373.38</ele>
        <time>2020-12-29T11:11:43Z</time>
      </trkpt>
      <trkpt lat="46.85685" lon="6.56261">
        <ele>1369.54</ele>
        <time>2020-12-29T11:11:58Z</time>
      </trkpt>
      <trkpt lat="46.85667" lon="6.56267">
        <ele>1365.21</ele>
        <time>2020-12-29T11:12:12Z</time>
      </trkpt>
      <trkpt lat="46.85647" lon="6.56277">
        <ele>1359.92</ele>
        <time>2020-12-29T11:12:30Z</time>
      </trkpt>
      <trkpt lat="46.85635" lon="6.56285">
        <ele>1355.6</ele>
        <time>2020-12-29T11:12:41Z</time>
      </trkpt>
      <trkpt lat="46.85633" lon="6.56286">
        <ele>1355.6</ele>
        <time>2020-12-29T11:12:43Z</time>
      </trkpt>
      <trkpt lat="46.85629" lon="6.56291">
        <ele>1354.15</ele>
        <time>2020-12-29T11:12:48Z</time>
      </trkpt>
      <trkpt lat="46.85613" lon="6.56295">
        <ele>1350.31</ele>
        <time>2020-12-29T11:13:01Z</time>
      </trkpt>
      <trkpt lat="46.85611" lon="6.56296">
        <ele>1349.35</ele>
        <time>2020-12-29T11:13:03Z</time>
      </trkpt>
      <trkpt lat="46.85602" lon="6.56299">
        <ele>1345.98</ele>
        <time>2020-12-29T11:13:11Z</time>
      </trkpt>
      <trkpt lat="46.85592" lon="6.56313">
        <ele>1340.22</ele>
        <time>2020-12-29T11:13:25Z</time>
      </trkpt>
      <trkpt lat="46.85578" lon="6.56314">
        <ele>1335.41</ele>
        <time>2020-12-29T11:13:41Z</time>
      </trkpt>
      <trkpt lat="46.85567" lon="6.56324">
        <ele>1331.08</ele>
        <time>2020-12-29T11:13:54Z</time>
      </trkpt>
      <trkpt lat="46.85556" lon="6.56331">
        <ele>1326.28</ele>
        <time>2020-12-29T11:14:08Z</time>
      </trkpt>
      <trkpt lat="46.85551" lon="6.56336">
        <ele>1324.83</ele>
        <time>2020-12-29T11:14:14Z</time>
      </trkpt>
      <trkpt lat="46.85548" lon="6.56338">
        <ele>1323.87</ele>
        <time>2020-12-29T11:14:17Z</time>
      </trkpt>
      <trkpt lat="46.85542" lon="6.56342">
        <ele>1322.43</ele>
        <time>2020-12-29T11:14:23Z</time>
      </trkpt>
      <trkpt lat="46.8554" lon="6.56344">
        <ele>1320.99</ele>
        <time>2020-12-29T11:14:26Z</time>
      </trkpt>
      <trkpt lat="46.85533" lon="6.56349">
        <ele>1320.51</ele>
        <time>2020-12-29T11:14:32Z</time>
      </trkpt>
      <trkpt lat="46.8552" lon="6.56354">
        <ele>1318.1</ele>
        <time>2020-12-29T11:14:46Z</time>
      </trkpt>
      <trkpt lat="46.85507" lon="6.56355">
        <ele>1316.66</ele>
        <time>2020-12-29T11:15:01Z</time>
      </trkpt>
      <trkpt lat="46.85501" lon="6.56361">
        <ele>1316.66</ele>
        <time>2020-12-29T11:15:16Z</time>
      </trkpt>
      <trkpt lat="46.85501" lon="6.56362">
        <ele>1317.62</ele>
        <time>2020-12-29T11:15:43Z</time>
      </trkpt>
      <trkpt lat="46.85499" lon="6.5636">
        <ele>1319.55</ele>
        <time>2020-12-29T11:16:03Z</time>
      </trkpt>
      <trkpt lat="46.85483" lon="6.56361">
        <ele>1316.66</ele>
        <time>2020-12-29T11:16:18Z</time>
      </trkpt>
      <trkpt lat="46.85468" lon="6.56358">
        <ele>1311.38</ele>
        <time>2020-12-29T11:16:32Z</time>
      </trkpt>
      <trkpt lat="46.85454" lon="6.56355">
        <ele>1307.05</ele>
        <time>2020-12-29T11:16:47Z</time>
      </trkpt>
      <trkpt lat="46.8544" lon="6.56351">
        <ele>1304.65</ele>
        <time>2020-12-29T11:17:03Z</time>
      </trkpt>
      <trkpt lat="46.8542" lon="6.56348">
        <ele>1303.69</ele>
        <time>2020-12-29T11:17:20Z</time>
      </trkpt>
      <trkpt lat="46.85401" lon="6.56347">
        <ele>1299.36</ele>
        <time>2020-12-29T11:17:39Z</time>
      </trkpt>
      <trkpt lat="46.85387" lon="6.56352">
        <ele>1295.03</ele>
        <time>2020-12-29T11:17:53Z</time>
      </trkpt>
      <trkpt lat="46.85376" lon="6.56356">
        <ele>1291.19</ele>
        <time>2020-12-29T11:18:06Z</time>
      </trkpt>
      <trkpt lat="46.85362" lon="6.56356">
        <ele>1288.3</ele>
        <time>2020-12-29T11:18:21Z</time>
      </trkpt>
      <trkpt lat="46.85343" lon="6.56364">
        <ele>1283.02</ele>
        <time>2020-12-29T11:18:42Z</time>
      </trkpt>
      <trkpt lat="46.85327" lon="6.56363">
        <ele>1280.13</ele>
        <time>2020-12-29T11:19:00Z</time>
      </trkpt>
      <trkpt lat="46.85308" lon="6.56372">
        <ele>1278.69</ele>
        <time>2020-12-29T11:19:16Z</time>
      </trkpt>
      <trkpt lat="46.85297" lon="6.56382">
        <ele>1273.88</ele>
        <time>2020-12-29T11:19:31Z</time>
      </trkpt>
      <trkpt lat="46.85299" lon="6.56393">
        <ele>1266.67</ele>
        <time>2020-12-29T11:19:49Z</time>
      </trkpt>
      <trkpt lat="46.85291" lon="6.56409">
        <ele>1262.83</ele>
        <time>2020-12-29T11:20:05Z</time>
      </trkpt>
      <trkpt lat="46.85282" lon="6.56419">
        <ele>1260.43</ele>
        <time>2020-12-29T11:20:19Z</time>
      </trkpt>
      <trkpt lat="46.85267" lon="6.56426">
        <ele>1259.46</ele>
        <time>2020-12-29T11:20:34Z</time>
      </trkpt>
      <trkpt lat="46.85266" lon="6.56427">
        <ele>1258.98</ele>
        <time>2020-12-29T11:20:35Z</time>
      </trkpt>
      <trkpt lat="46.85249" lon="6.56437">
        <ele>1257.06</ele>
        <time>2020-12-29T11:20:50Z</time>
      </trkpt>
      <trkpt lat="46.85234" lon="6.56444">
        <ele>1253.7</ele>
        <time>2020-12-29T11:21:05Z</time>
      </trkpt>
      <trkpt lat="46.85219" lon="6.56447">
        <ele>1251.77</ele>
        <time>2020-12-29T11:21:19Z</time>
      </trkpt>
      <trkpt lat="46.85206" lon="6.56457">
        <ele>1248.89</ele>
        <time>2020-12-29T11:21:33Z</time>
      </trkpt>
      <trkpt lat="46.85191" lon="6.56458">
        <ele>1247.45</ele>
        <time>2020-12-29T11:21:46Z</time>
      </trkpt>
      <trkpt lat="46.85171" lon="6.56457">
        <ele>1249.85</ele>
        <time>2020-12-29T11:22:04Z</time>
      </trkpt>
      <trkpt lat="46.85156" lon="6.56459">
        <ele>1256.58</ele>
        <time>2020-12-29T11:22:24Z</time>
      </trkpt>
      <trkpt lat="46.85144" lon="6.56475">
        <ele>1257.54</ele>
        <time>2020-12-29T11:22:42Z</time>
      </trkpt>
      <trkpt lat="46.85124" lon="6.56478">
        <ele>1255.14</ele>
        <time>2020-12-29T11:22:58Z</time>
      </trkpt>
      <trkpt lat="46.85107" lon="6.56485">
        <ele>1252.74</ele>
        <time>2020-12-29T11:23:13Z</time>
      </trkpt>
      <trkpt lat="46.85093" lon="6.56486">
        <ele>1251.29</ele>
        <time>2020-12-29T11:23:28Z</time>
      </trkpt>
      <trkpt lat="46.85076" lon="6.56496">
        <ele>1246.49</ele>
        <time>2020-12-29T11:23:46Z</time>
      </trkpt>
      <trkpt lat="46.8507" lon="6.56496">
        <ele>1245.53</ele>
        <time>2020-12-29T11:23:52Z</time>
      </trkpt>
      <trkpt lat="46.85052" lon="6.56497">
        <ele>1242.64</ele>
        <time>2020-12-29T11:24:08Z</time>
      </trkpt>
      <trkpt lat="46.85037" lon="6.56502">
        <ele>1241.2</ele>
        <time>2020-12-29T11:24:24Z</time>
      </trkpt>
      <trkpt lat="46.85031" lon="6.56507">
        <ele>1240.72</ele>
        <time>2020-12-29T11:24:39Z</time>
      </trkpt>
      <trkpt lat="46.85018" lon="6.56509">
        <ele>1241.68</ele>
        <time>2020-12-29T11:24:54Z</time>
      </trkpt>
      <trkpt lat="46.85002" lon="6.56521">
        <ele>1240.24</ele>
        <time>2020-12-29T11:25:14Z</time>
      </trkpt>
      <trkpt lat="46.84982" lon="6.56528">
        <ele>1240.72</ele>
        <time>2020-12-29T11:25:35Z</time>
      </trkpt>
      <trkpt lat="46.84967" lon="6.56526">
        <ele>1239.28</ele>
        <time>2020-12-29T11:25:51Z</time>
      </trkpt>
      <trkpt lat="46.84951" lon="6.56521">
        <ele>1237.83</ele>
        <time>2020-12-29T11:26:07Z</time>
      </trkpt>
      <trkpt lat="46.84928" lon="6.56513">
        <ele>1241.68</ele>
        <time>2020-12-29T11:26:26Z</time>
      </trkpt>
      <trkpt lat="46.84912" lon="6.56504">
        <ele>1239.28</ele>
        <time>2020-12-29T11:26:45Z</time>
      </trkpt>
      <trkpt lat="46.84897" lon="6.56497">
        <ele>1236.87</ele>
        <time>2020-12-29T11:27:02Z</time>
      </trkpt>
      <trkpt lat="46.8488" lon="6.56495">
        <ele>1234.95</ele>
        <time>2020-12-29T11:27:20Z</time>
      </trkpt>
      <trkpt lat="46.84864" lon="6.56479">
        <ele>1228.22</ele>
        <time>2020-12-29T11:27:40Z</time>
      </trkpt>
      <trkpt lat="46.84845" lon="6.56453">
        <ele>1230.14</ele>
        <time>2020-12-29T11:27:58Z</time>
      </trkpt>
      <trkpt lat="46.84826" lon="6.56435">
        <ele>1233.99</ele>
        <time>2020-12-29T11:28:19Z</time>
      </trkpt>
      <trkpt lat="46.84809" lon="6.56421">
        <ele>1232.07</ele>
        <time>2020-12-29T11:28:39Z</time>
      </trkpt>
      <trkpt lat="46.84792" lon="6.56406">
        <ele>1232.55</ele>
        <time>2020-12-29T11:28:56Z</time>
      </trkpt>
      <trkpt lat="46.84776" lon="6.56386">
        <ele>1232.07</ele>
        <time>2020-12-29T11:29:16Z</time>
      </trkpt>
      <trkpt lat="46.84769" lon="6.56369">
        <ele>1232.07</ele>
        <time>2020-12-29T11:29:32Z</time>
      </trkpt>
      <trkpt lat="46.84767" lon="6.56369">
        <ele>1232.55</ele>
        <time>2020-12-29T11:29:49Z</time>
      </trkpt>
      <trkpt lat="46.84764" lon="6.56365">
        <ele>1233.51</ele>
        <time>2020-12-29T11:30:09Z</time>
      </trkpt>
      <trkpt lat="46.84749" lon="6.56346">
        <ele>1234.47</ele>
        <time>2020-12-29T11:30:27Z</time>
      </trkpt>
      <trkpt lat="46.84735" lon="6.56324">
        <ele>1237.83</ele>
        <time>2020-12-29T11:30:47Z</time>
      </trkpt>
      <trkpt lat="46.84723" lon="6.56307">
        <ele>1235.43</ele>
        <time>2020-12-29T11:31:06Z</time>
      </trkpt>
      <trkpt lat="46.84706" lon="6.56289">
        <ele>1234.95</ele>
        <time>2020-12-29T11:31:28Z</time>
      </trkpt>
      <trkpt lat="46.84687" lon="6.56267">
        <ele>1232.07</ele>
        <time>2020-12-29T11:31:51Z</time>
      </trkpt>
      <trkpt lat="46.84676" lon="6.5626">
        <ele>1230.62</ele>
        <time>2020-12-29T11:32:04Z</time>
      </trkpt>
      <trkpt lat="46.84654" lon="6.56251">
        <ele>1229.18</ele>
        <time>2020-12-29T11:32:23Z</time>
      </trkpt>
      <trkpt lat="46.84628" lon="6.56243">
        <ele>1230.14</ele>
        <time>2020-12-29T11:32:44Z</time>
      </trkpt>
      <trkpt lat="46.84611" lon="6.56233">
        <ele>1221.97</ele>
        <time>2020-12-29T11:33:04Z</time>
      </trkpt>
      <trkpt lat="46.84586" lon="6.56225">
        <ele>1224.38</ele>
        <time>2020-12-29T11:33:22Z</time>
      </trkpt>
      <trkpt lat="46.84568" lon="6.56223">
        <ele>1223.42</ele>
        <time>2020-12-29T11:33:38Z</time>
      </trkpt>
      <trkpt lat="46.84547" lon="6.56223">
        <ele>1219.09</ele>
        <time>2020-12-29T11:33:58Z</time>
      </trkpt>
      <trkpt lat="46.84524" lon="6.56225">
        <ele>1217.65</ele>
        <time>2020-12-29T11:34:17Z</time>
      </trkpt>
      <trkpt lat="46.84505" lon="6.56226">
        <ele>1216.69</ele>
        <time>2020-12-29T11:34:34Z</time>
      </trkpt>
      <trkpt lat="46.84498" lon="6.56227">
        <ele>1215.24</ele>
        <time>2020-12-29T11:34:41Z</time>
      </trkpt>
      <trkpt lat="46.84482" lon="6.56219">
        <ele>1211.88</ele>
        <time>2020-12-29T11:34:59Z</time>
      </trkpt>
      <trkpt lat="46.84462" lon="6.56213">
        <ele>1209.96</ele>
        <time>2020-12-29T11:35:17Z</time>
      </trkpt>
      <trkpt lat="46.84444" lon="6.56212">
        <ele>1209.48</ele>
        <time>2020-12-29T11:35:34Z</time>
      </trkpt>
      <trkpt lat="46.8443" lon="6.56198">
        <ele>1208.51</ele>
        <time>2020-12-29T11:35:52Z</time>
      </trkpt>
      <trkpt lat="46.84414" lon="6.56184">
        <ele>1207.07</ele>
        <time>2020-12-29T11:36:12Z</time>
      </trkpt>
      <trkpt lat="46.844" lon="6.56176">
        <ele>1207.07</ele>
        <time>2020-12-29T11:36:28Z</time>
      </trkpt>
      <trkpt lat="46.84384" lon="6.56173">
        <ele>1206.11</ele>
        <time>2020-12-29T11:36:45Z</time>
      </trkpt>
      <trkpt lat="46.84372" lon="6.56168">
        <ele>1205.63</ele>
        <time>2020-12-29T11:36:59Z</time>
      </trkpt>
      <trkpt lat="46.8436" lon="6.56155">
        <ele>1204.67</ele>
        <time>2020-12-29T11:37:16Z</time>
      </trkpt>
      <trkpt lat="46.84348" lon="6.56141">
        <ele>1204.67</ele>
        <time>2020-12-29T11:37:30Z</time>
      </trkpt>
      <trkpt lat="46.84335" lon="6.56124">
        <ele>1201.79</ele>
        <time>2020-12-29T11:37:49Z</time>
      </trkpt>
      <trkpt lat="46.84322" lon="6.56106">
        <ele>1199.38</ele>
        <time>2020-12-29T11:38:08Z</time>
      </trkpt>
      <trkpt lat="46.84309" lon="6.56087">
        <ele>1197.94</ele>
        <time>2020-12-29T11:38:27Z</time>
      </trkpt>
      <trkpt lat="46.84294" lon="6.56068">
        <ele>1197.94</ele>
        <time>2020-12-29T11:38:45Z</time>
      </trkpt>
      <trkpt lat="46.8428" lon="6.5605">
        <ele>1198.9</ele>
        <time>2020-12-29T11:39:02Z</time>
      </trkpt>
      <trkpt lat="46.8427" lon="6.56033">
        <ele>1198.9</ele>
        <time>2020-12-29T11:39:18Z</time>
      </trkpt>
      <trkpt lat="46.84264" lon="6.5601">
        <ele>1201.3</ele>
        <time>2020-12-29T11:39:34Z</time>
      </trkpt>
      <trkpt lat="46.84256" lon="6.55996">
        <ele>1202.27</ele>
        <time>2020-12-29T11:39:49Z</time>
      </trkpt>
      <trkpt lat="46.84257" lon="6.55981">
        <ele>1198.9</ele>
        <time>2020-12-29T11:40:05Z</time>
      </trkpt>
      <trkpt lat="46.8426" lon="6.55975">
        <ele>1197.46</ele>
        <time>2020-12-29T11:40:21Z</time>
      </trkpt>
      <trkpt lat="46.84266" lon="6.55973">
        <ele>1201.3</ele>
        <time>2020-12-29T11:40:36Z</time>
      </trkpt>
      <trkpt lat="46.84273" lon="6.55969">
        <ele>1202.75</ele>
        <time>2020-12-29T11:40:46Z</time>
      </trkpt>
      <trkpt lat="46.84285" lon="6.55962">
        <ele>1204.67</ele>
        <time>2020-12-29T11:41:00Z</time>
      </trkpt>
      <trkpt lat="46.84294" lon="6.55949">
        <ele>1204.67</ele>
        <time>2020-12-29T11:41:13Z</time>
      </trkpt>
      <trkpt lat="46.843" lon="6.55939">
        <ele>1206.11</ele>
        <time>2020-12-29T11:41:25Z</time>
      </trkpt>
      <trkpt lat="46.84305" lon="6.55929">
        <ele>1207.55</ele>
        <time>2020-12-29T11:41:36Z</time>
      </trkpt>
      <trkpt lat="46.84309" lon="6.55915">
        <ele>1211.4</ele>
        <time>2020-12-29T11:41:49Z</time>
      </trkpt>
      <trkpt lat="46.84311" lon="6.55899">
        <ele>1215.24</ele>
        <time>2020-12-29T11:42:04Z</time>
      </trkpt>
      <trkpt lat="46.84312" lon="6.55885">
        <ele>1217.65</ele>
        <time>2020-12-29T11:42:18Z</time>
      </trkpt>
      <trkpt lat="46.84313" lon="6.55871">
        <ele>1219.09</ele>
        <time>2020-12-29T11:42:33Z</time>
      </trkpt>
      <trkpt lat="46.84315" lon="6.55856">
        <ele>1218.61</ele>
        <time>2020-12-29T11:42:49Z</time>
      </trkpt>
      <trkpt lat="46.84322" lon="6.55839">
        <ele>1220.05</ele>
        <time>2020-12-29T11:43:05Z</time>
      </trkpt>
      <trkpt lat="46.84326" lon="6.55825">
        <ele>1224.86</ele>
        <time>2020-12-29T11:43:20Z</time>
      </trkpt>
      <trkpt lat="46.84322" lon="6.55814">
        <ele>1227.26</ele>
        <time>2020-12-29T11:43:31Z</time>
      </trkpt>
      <trkpt lat="46.84319" lon="6.55802">
        <ele>1229.66</ele>
        <time>2020-12-29T11:43:44Z</time>
      </trkpt>
      <trkpt lat="46.84318" lon="6.55791">
        <ele>1228.22</ele>
        <time>2020-12-29T11:43:57Z</time>
      </trkpt>
      <trkpt lat="46.8432" lon="6.55774">
        <ele>1233.99</ele>
        <time>2020-12-29T11:44:10Z</time>
      </trkpt>
      <trkpt lat="46.84321" lon="6.55762">
        <ele>1228.22</ele>
        <time>2020-12-29T11:44:24Z</time>
      </trkpt>
      <trkpt lat="46.84321" lon="6.55748">
        <ele>1223.42</ele>
        <time>2020-12-29T11:44:39Z</time>
      </trkpt>
      <trkpt lat="46.84315" lon="6.55729">
        <ele>1224.38</ele>
        <time>2020-12-29T11:44:53Z</time>
      </trkpt>
      <trkpt lat="46.84312" lon="6.55715">
        <ele>1226.3</ele>
        <time>2020-12-29T11:45:07Z</time>
      </trkpt>
      <trkpt lat="46.84307" lon="6.557">
        <ele>1225.34</ele>
        <time>2020-12-29T11:45:22Z</time>
      </trkpt>
      <trkpt lat="46.84307" lon="6.55695">
        <ele>1229.66</ele>
        <time>2020-12-29T11:45:40Z</time>
      </trkpt>
      <trkpt lat="46.84295" lon="6.55675">
        <ele>1241.2</ele>
        <time>2020-12-29T11:45:58Z</time>
      </trkpt>
      <trkpt lat="46.84283" lon="6.55659">
        <ele>1245.53</ele>
        <time>2020-12-29T11:46:14Z</time>
      </trkpt>
      <trkpt lat="46.84267" lon="6.55645">
        <ele>1250.81</ele>
        <time>2020-12-29T11:46:30Z</time>
      </trkpt>
      <trkpt lat="46.84253" lon="6.55657">
        <ele>1253.22</ele>
        <time>2020-12-29T11:46:46Z</time>
      </trkpt>
      <trkpt lat="46.84245" lon="6.55658">
        <ele>1254.18</ele>
        <time>2020-12-29T11:47:02Z</time>
      </trkpt>
      <trkpt lat="46.84242" lon="6.55643">
        <ele>1253.7</ele>
        <time>2020-12-29T11:47:17Z</time>
      </trkpt>
      <trkpt lat="46.8424" lon="6.55629">
        <ele>1253.7</ele>
        <time>2020-12-29T11:47:31Z</time>
      </trkpt>
      <trkpt lat="46.8423" lon="6.55617">
        <ele>1253.22</ele>
        <time>2020-12-29T11:47:46Z</time>
      </trkpt>
      <trkpt lat="46.84224" lon="6.55604">
        <ele>1252.25</ele>
        <time>2020-12-29T11:47:57Z</time>
      </trkpt>
      <trkpt lat="46.84216" lon="6.55589">
        <ele>1253.7</ele>
        <time>2020-12-29T11:48:10Z</time>
      </trkpt>
      <trkpt lat="46.84206" lon="6.55567">
        <ele>1256.58</ele>
        <time>2020-12-29T11:48:28Z</time>
      </trkpt>
      <trkpt lat="46.84193" lon="6.55556">
        <ele>1254.66</ele>
        <time>2020-12-29T11:48:43Z</time>
      </trkpt>
      <trkpt lat="46.84188" lon="6.55549">
        <ele>1253.7</ele>
        <time>2020-12-29T11:48:48Z</time>
      </trkpt>
      <trkpt lat="46.84185" lon="6.55545">
        <ele>1253.7</ele>
        <time>2020-12-29T11:48:51Z</time>
      </trkpt>
      <trkpt lat="46.84175" lon="6.55535">
        <ele>1254.18</ele>
        <time>2020-12-29T11:49:04Z</time>
      </trkpt>
      <trkpt lat="46.84173" lon="6.55534">
        <ele>1254.66</ele>
        <time>2020-12-29T11:49:06Z</time>
      </trkpt>
      <trkpt lat="46.84149" lon="6.55514">
        <ele>1255.14</ele>
        <time>2020-12-29T11:49:26Z</time>
      </trkpt>
      <trkpt lat="46.8413" lon="6.55501">
        <ele>1251.29</ele>
        <time>2020-12-29T11:49:43Z</time>
      </trkpt>
      <trkpt lat="46.84117" lon="6.55492">
        <ele>1251.77</ele>
        <time>2020-12-29T11:49:59Z</time>
      </trkpt>
      <trkpt lat="46.84104" lon="6.55476">
        <ele>1250.81</ele>
        <time>2020-12-29T11:50:15Z</time>
      </trkpt>
      <trkpt lat="46.84093" lon="6.55459">
        <ele>1249.85</ele>
        <time>2020-12-29T11:50:31Z</time>
      </trkpt>
      <trkpt lat="46.84085" lon="6.55438">
        <ele>1249.37</ele>
        <time>2020-12-29T11:50:45Z</time>
      </trkpt>
      <trkpt lat="46.84079" lon="6.55427">
        <ele>1249.37</ele>
        <time>2020-12-29T11:50:57Z</time>
      </trkpt>
      <trkpt lat="46.84068" lon="6.55408">
        <ele>1250.33</ele>
        <time>2020-12-29T11:51:11Z</time>
      </trkpt>
      <trkpt lat="46.84059" lon="6.55393">
        <ele>1248.89</ele>
        <time>2020-12-29T11:51:24Z</time>
      </trkpt>
      <trkpt lat="46.84047" lon="6.55375">
        <ele>1247.45</ele>
        <time>2020-12-29T11:51:38Z</time>
      </trkpt>
      <trkpt lat="46.84033" lon="6.5536">
        <ele>1247.45</ele>
        <time>2020-12-29T11:51:54Z</time>
      </trkpt>
      <trkpt lat="46.84018" lon="6.55346">
        <ele>1246.97</ele>
        <time>2020-12-29T11:52:09Z</time>
      </trkpt>
      <trkpt lat="46.84016" lon="6.55344">
        <ele>1247.45</ele>
        <time>2020-12-29T11:52:12Z</time>
      </trkpt>
      <trkpt lat="46.84012" lon="6.5534">
        <ele>1247.93</ele>
        <time>2020-12-29T11:52:16Z</time>
      </trkpt>
      <trkpt lat="46.83998" lon="6.55324">
        <ele>1246.49</ele>
        <time>2020-12-29T11:52:32Z</time>
      </trkpt>
      <trkpt lat="46.83996" lon="6.55322">
        <ele>1246.01</ele>
        <time>2020-12-29T11:52:34Z</time>
      </trkpt>
      <trkpt lat="46.83982" lon="6.55302">
        <ele>1239.28</ele>
        <time>2020-12-29T11:52:52Z</time>
      </trkpt>
      <trkpt lat="46.8397" lon="6.55285">
        <ele>1236.39</ele>
        <time>2020-12-29T11:53:07Z</time>
      </trkpt>
      <trkpt lat="46.83964" lon="6.55277">
        <ele>1235.43</ele>
        <time>2020-12-29T11:53:14Z</time>
      </trkpt>
      <trkpt lat="46.83963" lon="6.55274">
        <ele>1234.47</ele>
        <time>2020-12-29T11:53:16Z</time>
      </trkpt>
      <trkpt lat="46.83953" lon="6.55256">
        <ele>1232.55</ele>
        <time>2020-12-29T11:53:31Z</time>
      </trkpt>
      <trkpt lat="46.83937" lon="6.55224">
        <ele>1234.47</ele>
        <time>2020-12-29T11:53:52Z</time>
      </trkpt>
      <trkpt lat="46.83923" lon="6.55199">
        <ele>1238.8</ele>
        <time>2020-12-29T11:54:13Z</time>
      </trkpt>
      <trkpt lat="46.83915" lon="6.55178">
        <ele>1236.87</ele>
        <time>2020-12-29T11:54:33Z</time>
      </trkpt>
      <trkpt lat="46.83909" lon="6.55158">
        <ele>1237.35</ele>
        <time>2020-12-29T11:54:48Z</time>
      </trkpt>
      <trkpt lat="46.83901" lon="6.55135">
        <ele>1239.76</ele>
        <time>2020-12-29T11:55:06Z</time>
      </trkpt>
      <trkpt lat="46.83894" lon="6.55116">
        <ele>1239.76</ele>
        <time>2020-12-29T11:55:23Z</time>
      </trkpt>
      <trkpt lat="46.83883" lon="6.55094">
        <ele>1243.6</ele>
        <time>2020-12-29T11:55:39Z</time>
      </trkpt>
      <trkpt lat="46.83871" lon="6.55079">
        <ele>1246.49</ele>
        <time>2020-12-29T11:55:55Z</time>
      </trkpt>
      <trkpt lat="46.83862" lon="6.55065">
        <ele>1245.04</ele>
        <time>2020-12-29T11:56:10Z</time>
      </trkpt>
      <trkpt lat="46.8385" lon="6.55044">
        <ele>1248.89</ele>
        <time>2020-12-29T11:56:27Z</time>
      </trkpt>
      <trkpt lat="46.83838" lon="6.55026">
        <ele>1248.89</ele>
        <time>2020-12-29T11:56:45Z</time>
      </trkpt>
      <trkpt lat="46.83824" lon="6.55012">
        <ele>1244.08</ele>
        <time>2020-12-29T11:57:04Z</time>
      </trkpt>
      <trkpt lat="46.8381" lon="6.54994">
        <ele>1239.28</ele>
        <time>2020-12-29T11:57:23Z</time>
      </trkpt>
      <trkpt lat="46.83796" lon="6.54971">
        <ele>1233.99</ele>
        <time>2020-12-29T11:57:43Z</time>
      </trkpt>
      <trkpt lat="46.83783" lon="6.54954">
        <ele>1232.07</ele>
        <time>2020-12-29T11:58:00Z</time>
      </trkpt>
      <trkpt lat="46.83767" lon="6.54934">
        <ele>1229.66</ele>
        <time>2020-12-29T11:58:18Z</time>
      </trkpt>
      <trkpt lat="46.83753" lon="6.54903">
        <ele>1228.22</ele>
        <time>2020-12-29T11:58:36Z</time>
      </trkpt>
      <trkpt lat="46.83739" lon="6.54876">
        <ele>1225.82</ele>
        <time>2020-12-29T11:58:55Z</time>
      </trkpt>
      <trkpt lat="46.8372" lon="6.54854">
        <ele>1233.51</ele>
        <time>2020-12-29T11:59:11Z</time>
      </trkpt>
      <trkpt lat="46.83707" lon="6.54831">
        <ele>1235.43</ele>
        <time>2020-12-29T11:59:30Z</time>
      </trkpt>
      <trkpt lat="46.83699" lon="6.54817">
        <ele>1234.95</ele>
        <time>2020-12-29T11:59:51Z</time>
      </trkpt>
      <trkpt lat="46.8369" lon="6.54811">
        <ele>1236.87</ele>
        <time>2020-12-29T12:00:10Z</time>
      </trkpt>
      <trkpt lat="46.83685" lon="6.54801">
        <ele>1235.91</ele>
        <time>2020-12-29T12:00:25Z</time>
      </trkpt>
      <trkpt lat="46.83677" lon="6.54791">
        <ele>1246.97</ele>
        <time>2020-12-29T12:00:37Z</time>
      </trkpt>
      <trkpt lat="46.83671" lon="6.54783">
        <ele>1246.01</ele>
        <time>2020-12-29T12:00:46Z</time>
      </trkpt>
      <trkpt lat="46.83663" lon="6.54767">
        <ele>1246.01</ele>
        <time>2020-12-29T12:01:00Z</time>
      </trkpt>
      <trkpt lat="46.83654" lon="6.54755">
        <ele>1249.37</ele>
        <time>2020-12-29T12:01:12Z</time>
      </trkpt>
      <trkpt lat="46.83644" lon="6.54741">
        <ele>1252.74</ele>
        <time>2020-12-29T12:01:25Z</time>
      </trkpt>
      <trkpt lat="46.83634" lon="6.54725">
        <ele>1252.25</ele>
        <time>2020-12-29T12:01:40Z</time>
      </trkpt>
      <trkpt lat="46.83625" lon="6.54714">
        <ele>1251.77</ele>
        <time>2020-12-29T12:01:52Z</time>
      </trkpt>
      <trkpt lat="46.83616" lon="6.54703">
        <ele>1253.22</ele>
        <time>2020-12-29T12:02:05Z</time>
      </trkpt>
      <trkpt lat="46.83606" lon="6.5469">
        <ele>1253.22</ele>
        <time>2020-12-29T12:02:18Z</time>
      </trkpt>
      <trkpt lat="46.83592" lon="6.54676">
        <ele>1253.22</ele>
        <time>2020-12-29T12:02:33Z</time>
      </trkpt>
      <trkpt lat="46.83582" lon="6.54665">
        <ele>1251.77</ele>
        <time>2020-12-29T12:02:45Z</time>
      </trkpt>
      <trkpt lat="46.83579" lon="6.5466">
        <ele>1251.77</ele>
        <time>2020-12-29T12:02:49Z</time>
      </trkpt>
      <trkpt lat="46.83568" lon="6.54648">
        <ele>1249.37</ele>
        <time>2020-12-29T12:03:02Z</time>
      </trkpt>
      <trkpt lat="46.83552" lon="6.54632">
        <ele>1246.01</ele>
        <time>2020-12-29T12:03:18Z</time>
      </trkpt>
      <trkpt lat="46.83536" lon="6.54613">
        <ele>1244.56</ele>
        <time>2020-12-29T12:03:34Z</time>
      </trkpt>
      <trkpt lat="46.83522" lon="6.54599">
        <ele>1244.08</ele>
        <time>2020-12-29T12:03:49Z</time>
      </trkpt>
      <trkpt lat="46.83507" lon="6.54588">
        <ele>1241.2</ele>
        <time>2020-12-29T12:04:04Z</time>
      </trkpt>
      <trkpt lat="46.83492" lon="6.54579">
        <ele>1238.32</ele>
        <time>2020-12-29T12:04:18Z</time>
      </trkpt>
      <trkpt lat="46.83479" lon="6.54565">
        <ele>1236.39</ele>
        <time>2020-12-29T12:04:32Z</time>
      </trkpt>
      <trkpt lat="46.83462" lon="6.54546">
        <ele>1235.91</ele>
        <time>2020-12-29T12:04:47Z</time>
      </trkpt>
      <trkpt lat="46.83447" lon="6.54533">
        <ele>1233.03</ele>
        <time>2020-12-29T12:05:02Z</time>
      </trkpt>
      <trkpt lat="46.83433" lon="6.54526">
        <ele>1233.51</ele>
        <time>2020-12-29T12:05:18Z</time>
      </trkpt>
      <trkpt lat="46.83431" lon="6.54526">
        <ele>1233.99</ele>
        <time>2020-12-29T12:05:36Z</time>
      </trkpt>
      <trkpt lat="46.83431" lon="6.5453">
        <ele>1235.91</ele>
        <time>2020-12-29T12:05:58Z</time>
      </trkpt>
      <trkpt lat="46.83426" lon="6.54522">
        <ele>1237.35</ele>
        <time>2020-12-29T12:06:11Z</time>
      </trkpt>
      <trkpt lat="46.83413" lon="6.54513">
        <ele>1234.95</ele>
        <time>2020-12-29T12:06:23Z</time>
      </trkpt>
      <trkpt lat="46.83398" lon="6.54504">
        <ele>1232.55</ele>
        <time>2020-12-29T12:06:36Z</time>
      </trkpt>
      <trkpt lat="46.83389" lon="6.54501">
        <ele>1231.11</ele>
        <time>2020-12-29T12:06:43Z</time>
      </trkpt>
      <trkpt lat="46.83381" lon="6.54499">
        <ele>1229.66</ele>
        <time>2020-12-29T12:06:49Z</time>
      </trkpt>
      <trkpt lat="46.83374" lon="6.54497">
        <ele>1231.11</ele>
        <time>2020-12-29T12:06:55Z</time>
      </trkpt>
      <trkpt lat="46.83355" lon="6.54491">
        <ele>1229.18</ele>
        <time>2020-12-29T12:07:10Z</time>
      </trkpt>
      <trkpt lat="46.8335" lon="6.54488">
        <ele>1228.22</ele>
        <time>2020-12-29T12:07:14Z</time>
      </trkpt>
      <trkpt lat="46.83332" lon="6.54471">
        <ele>1222.45</ele>
        <time>2020-12-29T12:07:31Z</time>
      </trkpt>
      <trkpt lat="46.83317" lon="6.54454">
        <ele>1220.05</ele>
        <time>2020-12-29T12:07:46Z</time>
      </trkpt>
      <trkpt lat="46.83301" lon="6.54431">
        <ele>1217.65</ele>
        <time>2020-12-29T12:08:04Z</time>
      </trkpt>
      <trkpt lat="46.83296" lon="6.54425">
        <ele>1217.17</ele>
        <time>2020-12-29T12:08:09Z</time>
      </trkpt>
      <trkpt lat="46.83283" lon="6.54407">
        <ele>1215.72</ele>
        <time>2020-12-29T12:08:25Z</time>
      </trkpt>
      <trkpt lat="46.83273" lon="6.54396">
        <ele>1214.76</ele>
        <time>2020-12-29T12:08:33Z</time>
      </trkpt>
      <trkpt lat="46.83255" lon="6.54376">
        <ele>1213.8</ele>
        <time>2020-12-29T12:08:48Z</time>
      </trkpt>
      <trkpt lat="46.83246" lon="6.54372">
        <ele>1213.32</ele>
        <time>2020-12-29T12:08:56Z</time>
      </trkpt>
      <trkpt lat="46.83238" lon="6.54371">
        <ele>1212.84</ele>
        <time>2020-12-29T12:09:02Z</time>
      </trkpt>
      <trkpt lat="46.8322" lon="6.54361">
        <ele>1211.4</ele>
        <time>2020-12-29T12:09:17Z</time>
      </trkpt>
      <trkpt lat="46.83197" lon="6.5435">
        <ele>1210.92</ele>
        <time>2020-12-29T12:09:37Z</time>
      </trkpt>
      <trkpt lat="46.83175" lon="6.54344">
        <ele>1210.44</ele>
        <time>2020-12-29T12:09:54Z</time>
      </trkpt>
      <trkpt lat="46.83158" lon="6.54343">
        <ele>1209.96</ele>
        <time>2020-12-29T12:10:10Z</time>
      </trkpt>
      <trkpt lat="46.83136" lon="6.54332">
        <ele>1208.51</ele>
        <time>2020-12-29T12:10:28Z</time>
      </trkpt>
      <trkpt lat="46.8312" lon="6.54319">
        <ele>1207.07</ele>
        <time>2020-12-29T12:10:43Z</time>
      </trkpt>
      <trkpt lat="46.83113" lon="6.54314">
        <ele>1205.15</ele>
        <time>2020-12-29T12:10:50Z</time>
      </trkpt>
      <trkpt lat="46.83096" lon="6.54298">
        <ele>1202.27</ele>
        <time>2020-12-29T12:11:08Z</time>
      </trkpt>
      <trkpt lat="46.83078" lon="6.54279">
        <ele>1199.38</ele>
        <time>2020-12-29T12:11:27Z</time>
      </trkpt>
      <trkpt lat="46.83066" lon="6.54263">
        <ele>1196.98</ele>
        <time>2020-12-29T12:11:42Z</time>
      </trkpt>
      <trkpt lat="46.83062" lon="6.54246">
        <ele>1193.61</ele>
        <time>2020-12-29T12:11:56Z</time>
      </trkpt>
      <trkpt lat="46.83058" lon="6.54238">
        <ele>1192.17</ele>
        <time>2020-12-29T12:12:02Z</time>
      </trkpt>
      <trkpt lat="46.83051" lon="6.54217">
        <ele>1192.65</ele>
        <time>2020-12-29T12:12:16Z</time>
      </trkpt>
      <trkpt lat="46.83039" lon="6.54193">
        <ele>1191.21</ele>
        <time>2020-12-29T12:12:34Z</time>
      </trkpt>
      <trkpt lat="46.83038" lon="6.54191">
        <ele>1191.21</ele>
        <time>2020-12-29T12:12:35Z</time>
      </trkpt>
      <trkpt lat="46.83036" lon="6.54184">
        <ele>1191.21</ele>
        <time>2020-12-29T12:12:52Z</time>
      </trkpt>
      <trkpt lat="46.83035" lon="6.54182">
        <ele>1191.21</ele>
        <time>2020-12-29T12:12:54Z</time>
      </trkpt>
      <trkpt lat="46.83029" lon="6.54178">
        <ele>1191.69</ele>
        <time>2020-12-29T12:13:00Z</time>
      </trkpt>
      <trkpt lat="46.83024" lon="6.54176">
        <ele>1191.69</ele>
        <time>2020-12-29T12:13:04Z</time>
      </trkpt>
      <trkpt lat="46.83014" lon="6.54165">
        <ele>1189.77</ele>
        <time>2020-12-29T12:13:14Z</time>
      </trkpt>
      <trkpt lat="46.83001" lon="6.5414">
        <ele>1186.4</ele>
        <time>2020-12-29T12:13:33Z</time>
      </trkpt>
      <trkpt lat="46.82994" lon="6.54119">
        <ele>1186.4</ele>
        <time>2020-12-29T12:13:47Z</time>
      </trkpt>
      <trkpt lat="46.82993" lon="6.54116">
        <ele>1193.61</ele>
        <time>2020-12-29T12:14:07Z</time>
      </trkpt>
      <trkpt lat="46.82994" lon="6.54116">
        <ele>1194.09</ele>
        <time>2020-12-29T12:14:27Z</time>
      </trkpt>
      <trkpt lat="46.82994" lon="6.54114">
        <ele>1195.06</ele>
        <time>2020-12-29T12:14:42Z</time>
      </trkpt>
      <trkpt lat="46.82994" lon="6.54116">
        <ele>1195.06</ele>
        <time>2020-12-29T12:14:54Z</time>
      </trkpt>
      <trkpt lat="46.82993" lon="6.54115">
        <ele>1193.61</ele>
        <time>2020-12-29T12:15:09Z</time>
      </trkpt>
      <trkpt lat="46.82993" lon="6.54117">
        <ele>1196.02</ele>
        <time>2020-12-29T12:15:27Z</time>
      </trkpt>
      <trkpt lat="46.82994" lon="6.54117">
        <ele>1196.98</ele>
        <time>2020-12-29T12:15:46Z</time>
      </trkpt>
      <trkpt lat="46.82994" lon="6.54116">
        <ele>1196.5</ele>
        <time>2020-12-29T12:16:07Z</time>
      </trkpt>
      <trkpt lat="46.82993" lon="6.54116">
        <ele>1194.58</ele>
        <time>2020-12-29T12:16:23Z</time>
      </trkpt>
    </trkseg>
  </trk>
</gpx>